<?xml version="1.0" encoding="UTF-8" standalone="no" ?>
<gpx xmlns="http://www.topografix.com/GPX/1/1" xmlns:xsi="http://www.w3.org/2001/XMLSchema-instance" xsi:schemaLocation="http://www.topografix.com/GPX/1/1 http://www.topografix.com/GPX/1/1/gpx.xsd" version="1.1" creator="VisuGPX - https://www.visugpx.com">
  <metadata>
    <name>lac du heron - mont st aubert</name>
    <desc><![CDATA[alller simple vers le mont saint aubert, passages tres boueux en hiver ]]></desc>
  </metadata>
  <trk>
    <name><![CDATA[171203092838 on GPSies.com]]></name>
    <trkseg>
      <trkpt lat="50.63712" lon="3.17451">
        <ele>-132</ele>
        <time>2017-12-03T09:28:46Z</time>
      </trkpt>
      <trkpt lat="50.63709" lon="3.17475">
        <ele>-132</ele>
        <time>2017-12-03T09:28:50Z</time>
      </trkpt>
      <trkpt lat="50.63711" lon="3.17502">
        <ele>-132</ele>
        <time>2017-12-03T09:28:54Z</time>
      </trkpt>
      <trkpt lat="50.63714" lon="3.17529">
        <ele>-132</ele>
        <time>2017-12-03T09:28:58Z</time>
      </trkpt>
      <trkpt lat="50.63722" lon="3.17552">
        <ele>-132</ele>
        <time>2017-12-03T09:29:02Z</time>
      </trkpt>
      <trkpt lat="50.63727" lon="3.1758">
        <ele>-132</ele>
        <time>2017-12-03T09:29:06Z</time>
      </trkpt>
      <trkpt lat="50.63729" lon="3.17607">
        <ele>-132</ele>
        <time>2017-12-03T09:29:10Z</time>
      </trkpt>
      <trkpt lat="50.63739" lon="3.17631">
        <ele>-132</ele>
        <time>2017-12-03T09:29:14Z</time>
      </trkpt>
      <trkpt lat="50.63749" lon="3.17654">
        <ele>-132</ele>
        <time>2017-12-03T09:29:18Z</time>
      </trkpt>
      <trkpt lat="50.63756" lon="3.1768">
        <ele>-132</ele>
        <time>2017-12-03T09:29:22Z</time>
      </trkpt>
      <trkpt lat="50.6376" lon="3.17707">
        <ele>-132</ele>
        <time>2017-12-03T09:29:26Z</time>
      </trkpt>
      <trkpt lat="50.63766" lon="3.17731">
        <ele>-132</ele>
        <time>2017-12-03T09:29:30Z</time>
      </trkpt>
      <trkpt lat="50.63775" lon="3.1775">
        <ele>-133</ele>
        <time>2017-12-03T09:29:34Z</time>
      </trkpt>
      <trkpt lat="50.63786" lon="3.17767">
        <ele>-133</ele>
        <time>2017-12-03T09:29:38Z</time>
      </trkpt>
      <trkpt lat="50.63799" lon="3.17781">
        <ele>-133</ele>
        <time>2017-12-03T09:29:42Z</time>
      </trkpt>
      <trkpt lat="50.63813" lon="3.17798">
        <ele>-132</ele>
        <time>2017-12-03T09:29:46Z</time>
      </trkpt>
      <trkpt lat="50.63825" lon="3.17818">
        <ele>-132</ele>
        <time>2017-12-03T09:29:50Z</time>
      </trkpt>
      <trkpt lat="50.63835" lon="3.17842">
        <ele>-133</ele>
        <time>2017-12-03T09:29:54Z</time>
      </trkpt>
      <trkpt lat="50.63843" lon="3.17862">
        <ele>-132</ele>
        <time>2017-12-03T09:29:58Z</time>
      </trkpt>
      <trkpt lat="50.63851" lon="3.17859">
        <ele>-131</ele>
        <time>2017-12-03T09:30:02Z</time>
      </trkpt>
      <trkpt lat="50.63858" lon="3.17841">
        <ele>-132</ele>
        <time>2017-12-03T09:30:06Z</time>
      </trkpt>
      <trkpt lat="50.63867" lon="3.17819">
        <ele>-132</ele>
        <time>2017-12-03T09:30:10Z</time>
      </trkpt>
      <trkpt lat="50.63876" lon="3.178">
        <ele>-131</ele>
        <time>2017-12-03T09:30:14Z</time>
      </trkpt>
      <trkpt lat="50.63891" lon="3.17798">
        <ele>-131</ele>
        <time>2017-12-03T09:30:18Z</time>
      </trkpt>
      <trkpt lat="50.63904" lon="3.17809">
        <ele>-132</ele>
        <time>2017-12-03T09:30:22Z</time>
      </trkpt>
      <trkpt lat="50.63915" lon="3.17817">
        <ele>-132</ele>
        <time>2017-12-03T09:30:26Z</time>
      </trkpt>
      <trkpt lat="50.63927" lon="3.17811">
        <ele>-132</ele>
        <time>2017-12-03T09:30:30Z</time>
      </trkpt>
      <trkpt lat="50.63938" lon="3.178">
        <ele>-131</ele>
        <time>2017-12-03T09:30:34Z</time>
      </trkpt>
      <trkpt lat="50.63946" lon="3.17807">
        <ele>-132</ele>
        <time>2017-12-03T09:30:38Z</time>
      </trkpt>
      <trkpt lat="50.63956" lon="3.17824">
        <ele>-131</ele>
        <time>2017-12-03T09:30:42Z</time>
      </trkpt>
      <trkpt lat="50.63966" lon="3.17844">
        <ele>-131</ele>
        <time>2017-12-03T09:30:46Z</time>
      </trkpt>
      <trkpt lat="50.63979" lon="3.17862">
        <ele>-132</ele>
        <time>2017-12-03T09:30:50Z</time>
      </trkpt>
      <trkpt lat="50.63992" lon="3.17879">
        <ele>-131</ele>
        <time>2017-12-03T09:30:54Z</time>
      </trkpt>
      <trkpt lat="50.64007" lon="3.17898">
        <ele>-131</ele>
        <time>2017-12-03T09:30:58Z</time>
      </trkpt>
      <trkpt lat="50.64022" lon="3.17915">
        <ele>-131</ele>
        <time>2017-12-03T09:31:02Z</time>
      </trkpt>
      <trkpt lat="50.64037" lon="3.1793">
        <ele>-131</ele>
        <time>2017-12-03T09:31:06Z</time>
      </trkpt>
      <trkpt lat="50.64047" lon="3.17948">
        <ele>-132</ele>
        <time>2017-12-03T09:31:10Z</time>
      </trkpt>
      <trkpt lat="50.64052" lon="3.17973">
        <ele>-132</ele>
        <time>2017-12-03T09:31:14Z</time>
      </trkpt>
      <trkpt lat="50.64056" lon="3.18">
        <ele>-132</ele>
        <time>2017-12-03T09:31:18Z</time>
      </trkpt>
      <trkpt lat="50.64051" lon="3.18028">
        <ele>-132</ele>
        <time>2017-12-03T09:31:22Z</time>
      </trkpt>
      <trkpt lat="50.64041" lon="3.18054">
        <ele>-132</ele>
        <time>2017-12-03T09:31:26Z</time>
      </trkpt>
      <trkpt lat="50.64033" lon="3.18073">
        <ele>-132</ele>
        <time>2017-12-03T09:31:30Z</time>
      </trkpt>
      <trkpt lat="50.64026" lon="3.18085">
        <ele>-132</ele>
        <time>2017-12-03T09:31:34Z</time>
      </trkpt>
      <trkpt lat="50.6402" lon="3.18104">
        <ele>-132</ele>
        <time>2017-12-03T09:31:38Z</time>
      </trkpt>
      <trkpt lat="50.64023" lon="3.1813">
        <ele>-132</ele>
        <time>2017-12-03T09:31:42Z</time>
      </trkpt>
      <trkpt lat="50.64025" lon="3.18155">
        <ele>-132</ele>
        <time>2017-12-03T09:31:46Z</time>
      </trkpt>
      <trkpt lat="50.64016" lon="3.1818">
        <ele>-131</ele>
        <time>2017-12-03T09:31:50Z</time>
      </trkpt>
      <trkpt lat="50.64007" lon="3.18203">
        <ele>-131</ele>
        <time>2017-12-03T09:31:54Z</time>
      </trkpt>
      <trkpt lat="50.63996" lon="3.18227">
        <ele>-130</ele>
        <time>2017-12-03T09:31:58Z</time>
      </trkpt>
      <trkpt lat="50.63986" lon="3.18251">
        <ele>-131</ele>
        <time>2017-12-03T09:32:02Z</time>
      </trkpt>
      <trkpt lat="50.63974" lon="3.18274">
        <ele>-130</ele>
        <time>2017-12-03T09:32:06Z</time>
      </trkpt>
      <trkpt lat="50.63963" lon="3.18298">
        <ele>-130</ele>
        <time>2017-12-03T09:32:10Z</time>
      </trkpt>
      <trkpt lat="50.63952" lon="3.18323">
        <ele>-131</ele>
        <time>2017-12-03T09:32:14Z</time>
      </trkpt>
      <trkpt lat="50.6394" lon="3.18347">
        <ele>-131</ele>
        <time>2017-12-03T09:32:18Z</time>
      </trkpt>
      <trkpt lat="50.63929" lon="3.18372">
        <ele>-131</ele>
        <time>2017-12-03T09:32:22Z</time>
      </trkpt>
      <trkpt lat="50.63917" lon="3.18397">
        <ele>-131</ele>
        <time>2017-12-03T09:32:26Z</time>
      </trkpt>
      <trkpt lat="50.63906" lon="3.18421">
        <ele>-131</ele>
        <time>2017-12-03T09:32:30Z</time>
      </trkpt>
      <trkpt lat="50.63894" lon="3.18445">
        <ele>-131</ele>
        <time>2017-12-03T09:32:34Z</time>
      </trkpt>
      <trkpt lat="50.63883" lon="3.1847">
        <ele>-131</ele>
        <time>2017-12-03T09:32:38Z</time>
      </trkpt>
      <trkpt lat="50.63871" lon="3.18494">
        <ele>-131</ele>
        <time>2017-12-03T09:32:42Z</time>
      </trkpt>
      <trkpt lat="50.6386" lon="3.18518">
        <ele>-131</ele>
        <time>2017-12-03T09:32:46Z</time>
      </trkpt>
      <trkpt lat="50.63848" lon="3.18542">
        <ele>-131</ele>
        <time>2017-12-03T09:32:50Z</time>
      </trkpt>
      <trkpt lat="50.63837" lon="3.18566">
        <ele>-131</ele>
        <time>2017-12-03T09:32:54Z</time>
      </trkpt>
      <trkpt lat="50.63826" lon="3.18589">
        <ele>-131</ele>
        <time>2017-12-03T09:32:58Z</time>
      </trkpt>
      <trkpt lat="50.63815" lon="3.18613">
        <ele>-131</ele>
        <time>2017-12-03T09:33:02Z</time>
      </trkpt>
      <trkpt lat="50.63804" lon="3.18637">
        <ele>-131</ele>
        <time>2017-12-03T09:33:06Z</time>
      </trkpt>
      <trkpt lat="50.63793" lon="3.1866">
        <ele>-131</ele>
        <time>2017-12-03T09:33:10Z</time>
      </trkpt>
      <trkpt lat="50.63781" lon="3.18686">
        <ele>-131</ele>
        <time>2017-12-03T09:33:14Z</time>
      </trkpt>
      <trkpt lat="50.6377" lon="3.18712">
        <ele>-131</ele>
        <time>2017-12-03T09:33:18Z</time>
      </trkpt>
      <trkpt lat="50.63757" lon="3.18735">
        <ele>-130</ele>
        <time>2017-12-03T09:33:22Z</time>
      </trkpt>
      <trkpt lat="50.63741" lon="3.1874">
        <ele>-130</ele>
        <time>2017-12-03T09:33:26Z</time>
      </trkpt>
      <trkpt lat="50.63723" lon="3.18727">
        <ele>-130</ele>
        <time>2017-12-03T09:33:30Z</time>
      </trkpt>
      <trkpt lat="50.63706" lon="3.18713">
        <ele>-130</ele>
        <time>2017-12-03T09:33:34Z</time>
      </trkpt>
      <trkpt lat="50.63689" lon="3.187">
        <ele>-130</ele>
        <time>2017-12-03T09:33:38Z</time>
      </trkpt>
      <trkpt lat="50.63671" lon="3.18687">
        <ele>-130</ele>
        <time>2017-12-03T09:33:42Z</time>
      </trkpt>
      <trkpt lat="50.63655" lon="3.18674">
        <ele>-130</ele>
        <time>2017-12-03T09:33:46Z</time>
      </trkpt>
      <trkpt lat="50.63639" lon="3.1866">
        <ele>-130</ele>
        <time>2017-12-03T09:33:50Z</time>
      </trkpt>
      <trkpt lat="50.63626" lon="3.18648">
        <ele>-131</ele>
        <time>2017-12-03T09:33:54Z</time>
      </trkpt>
      <trkpt lat="50.63613" lon="3.18652">
        <ele>-131</ele>
        <time>2017-12-03T09:33:58Z</time>
      </trkpt>
      <trkpt lat="50.63599" lon="3.18649">
        <ele>-131</ele>
        <time>2017-12-03T09:34:02Z</time>
      </trkpt>
      <trkpt lat="50.63587" lon="3.18639">
        <ele>-131</ele>
        <time>2017-12-03T09:34:06Z</time>
      </trkpt>
      <trkpt lat="50.6358" lon="3.18625">
        <ele>-131</ele>
        <time>2017-12-03T09:34:10Z</time>
      </trkpt>
      <trkpt lat="50.63568" lon="3.18617">
        <ele>-131</ele>
        <time>2017-12-03T09:34:14Z</time>
      </trkpt>
      <trkpt lat="50.63556" lon="3.18607">
        <ele>-131</ele>
        <time>2017-12-03T09:34:18Z</time>
      </trkpt>
      <trkpt lat="50.63541" lon="3.186">
        <ele>-131</ele>
        <time>2017-12-03T09:34:22Z</time>
      </trkpt>
      <trkpt lat="50.63524" lon="3.18591">
        <ele>-131</ele>
        <time>2017-12-03T09:34:26Z</time>
      </trkpt>
      <trkpt lat="50.63507" lon="3.18581">
        <ele>-131</ele>
        <time>2017-12-03T09:34:30Z</time>
      </trkpt>
      <trkpt lat="50.6349" lon="3.18572">
        <ele>-131</ele>
        <time>2017-12-03T09:34:34Z</time>
      </trkpt>
      <trkpt lat="50.63472" lon="3.18573">
        <ele>-131</ele>
        <time>2017-12-03T09:34:38Z</time>
      </trkpt>
      <trkpt lat="50.63455" lon="3.18569">
        <ele>-131</ele>
        <time>2017-12-03T09:34:42Z</time>
      </trkpt>
      <trkpt lat="50.63437" lon="3.18563">
        <ele>-131</ele>
        <time>2017-12-03T09:34:46Z</time>
      </trkpt>
      <trkpt lat="50.63419" lon="3.18557">
        <ele>-131</ele>
        <time>2017-12-03T09:34:50Z</time>
      </trkpt>
      <trkpt lat="50.63403" lon="3.18552">
        <ele>-130</ele>
        <time>2017-12-03T09:34:54Z</time>
      </trkpt>
      <trkpt lat="50.63386" lon="3.18546">
        <ele>-130</ele>
        <time>2017-12-03T09:34:58Z</time>
      </trkpt>
      <trkpt lat="50.63368" lon="3.1854">
        <ele>-130</ele>
        <time>2017-12-03T09:35:02Z</time>
      </trkpt>
      <trkpt lat="50.63349" lon="3.18533">
        <ele>-130</ele>
        <time>2017-12-03T09:35:06Z</time>
      </trkpt>
      <trkpt lat="50.63328" lon="3.18527">
        <ele>-130</ele>
        <time>2017-12-03T09:35:10Z</time>
      </trkpt>
      <trkpt lat="50.63307" lon="3.18519">
        <ele>-130</ele>
        <time>2017-12-03T09:35:14Z</time>
      </trkpt>
      <trkpt lat="50.63287" lon="3.18512">
        <ele>-131</ele>
        <time>2017-12-03T09:35:18Z</time>
      </trkpt>
      <trkpt lat="50.63266" lon="3.18505">
        <ele>-131</ele>
        <time>2017-12-03T09:35:22Z</time>
      </trkpt>
      <trkpt lat="50.63246" lon="3.18499">
        <ele>-131</ele>
        <time>2017-12-03T09:35:26Z</time>
      </trkpt>
      <trkpt lat="50.63229" lon="3.18493">
        <ele>-131</ele>
        <time>2017-12-03T09:35:30Z</time>
      </trkpt>
      <trkpt lat="50.63213" lon="3.18496">
        <ele>-130</ele>
        <time>2017-12-03T09:35:34Z</time>
      </trkpt>
      <trkpt lat="50.63204" lon="3.18511">
        <ele>-131</ele>
        <time>2017-12-03T09:35:38Z</time>
      </trkpt>
      <trkpt lat="50.63195" lon="3.18529">
        <ele>-131</ele>
        <time>2017-12-03T09:35:42Z</time>
      </trkpt>
      <trkpt lat="50.63181" lon="3.18547">
        <ele>-131</ele>
        <time>2017-12-03T09:35:46Z</time>
      </trkpt>
      <trkpt lat="50.63165" lon="3.18565">
        <ele>-131</ele>
        <time>2017-12-03T09:35:50Z</time>
      </trkpt>
      <trkpt lat="50.63149" lon="3.18585">
        <ele>-131</ele>
        <time>2017-12-03T09:35:54Z</time>
      </trkpt>
      <trkpt lat="50.63134" lon="3.18607">
        <ele>-131</ele>
        <time>2017-12-03T09:35:58Z</time>
      </trkpt>
      <trkpt lat="50.63119" lon="3.18629">
        <ele>-131</ele>
        <time>2017-12-03T09:36:02Z</time>
      </trkpt>
      <trkpt lat="50.63104" lon="3.1865">
        <ele>-131</ele>
        <time>2017-12-03T09:36:06Z</time>
      </trkpt>
      <trkpt lat="50.63088" lon="3.18673">
        <ele>-132</ele>
        <time>2017-12-03T09:36:10Z</time>
      </trkpt>
      <trkpt lat="50.63072" lon="3.18694">
        <ele>-131</ele>
        <time>2017-12-03T09:36:14Z</time>
      </trkpt>
      <trkpt lat="50.63056" lon="3.18714">
        <ele>-132</ele>
        <time>2017-12-03T09:36:18Z</time>
      </trkpt>
      <trkpt lat="50.63041" lon="3.18731">
        <ele>-131</ele>
        <time>2017-12-03T09:36:22Z</time>
      </trkpt>
      <trkpt lat="50.63031" lon="3.18743">
        <ele>-131</ele>
        <time>2017-12-03T09:36:26Z</time>
      </trkpt>
      <trkpt lat="50.6302" lon="3.18756">
        <ele>-131</ele>
        <time>2017-12-03T09:36:30Z</time>
      </trkpt>
      <trkpt lat="50.6301" lon="3.18777">
        <ele>-131</ele>
        <time>2017-12-03T09:36:34Z</time>
      </trkpt>
      <trkpt lat="50.62999" lon="3.18797">
        <ele>-131</ele>
        <time>2017-12-03T09:36:38Z</time>
      </trkpt>
      <trkpt lat="50.62986" lon="3.18817">
        <ele>-131</ele>
        <time>2017-12-03T09:36:42Z</time>
      </trkpt>
      <trkpt lat="50.62972" lon="3.18833">
        <ele>-131</ele>
        <time>2017-12-03T09:36:46Z</time>
      </trkpt>
      <trkpt lat="50.62956" lon="3.18847">
        <ele>-131</ele>
        <time>2017-12-03T09:36:50Z</time>
      </trkpt>
      <trkpt lat="50.62944" lon="3.1887">
        <ele>-132</ele>
        <time>2017-12-03T09:36:54Z</time>
      </trkpt>
      <trkpt lat="50.62933" lon="3.18896">
        <ele>-131</ele>
        <time>2017-12-03T09:36:58Z</time>
      </trkpt>
      <trkpt lat="50.62925" lon="3.18924">
        <ele>-131</ele>
        <time>2017-12-03T09:37:02Z</time>
      </trkpt>
      <trkpt lat="50.62912" lon="3.18956">
        <ele>-131</ele>
        <time>2017-12-03T09:37:06Z</time>
      </trkpt>
      <trkpt lat="50.62897" lon="3.18986">
        <ele>-131</ele>
        <time>2017-12-03T09:37:10Z</time>
      </trkpt>
      <trkpt lat="50.62882" lon="3.1902">
        <ele>-131</ele>
        <time>2017-12-03T09:37:14Z</time>
      </trkpt>
      <trkpt lat="50.62865" lon="3.19053">
        <ele>-131</ele>
        <time>2017-12-03T09:37:18Z</time>
      </trkpt>
      <trkpt lat="50.62846" lon="3.19081">
        <ele>-131</ele>
        <time>2017-12-03T09:37:22Z</time>
      </trkpt>
      <trkpt lat="50.62828" lon="3.1911">
        <ele>-130</ele>
        <time>2017-12-03T09:37:26Z</time>
      </trkpt>
      <trkpt lat="50.62815" lon="3.19145">
        <ele>-131</ele>
        <time>2017-12-03T09:37:30Z</time>
      </trkpt>
      <trkpt lat="50.62803" lon="3.19181">
        <ele>-130</ele>
        <time>2017-12-03T09:37:34Z</time>
      </trkpt>
      <trkpt lat="50.6279" lon="3.19214">
        <ele>-131</ele>
        <time>2017-12-03T09:37:38Z</time>
      </trkpt>
      <trkpt lat="50.62776" lon="3.19246">
        <ele>-131</ele>
        <time>2017-12-03T09:37:42Z</time>
      </trkpt>
      <trkpt lat="50.62764" lon="3.19279">
        <ele>-131</ele>
        <time>2017-12-03T09:37:46Z</time>
      </trkpt>
      <trkpt lat="50.62751" lon="3.19311">
        <ele>-131</ele>
        <time>2017-12-03T09:37:50Z</time>
      </trkpt>
      <trkpt lat="50.62737" lon="3.19343">
        <ele>-131</ele>
        <time>2017-12-03T09:37:54Z</time>
      </trkpt>
      <trkpt lat="50.62725" lon="3.19375">
        <ele>-131</ele>
        <time>2017-12-03T09:37:58Z</time>
      </trkpt>
      <trkpt lat="50.62711" lon="3.19408">
        <ele>-131</ele>
        <time>2017-12-03T09:38:02Z</time>
      </trkpt>
      <trkpt lat="50.62698" lon="3.19441">
        <ele>-130</ele>
        <time>2017-12-03T09:38:06Z</time>
      </trkpt>
      <trkpt lat="50.62686" lon="3.19474">
        <ele>-131</ele>
        <time>2017-12-03T09:38:10Z</time>
      </trkpt>
      <trkpt lat="50.62675" lon="3.19508">
        <ele>-131</ele>
        <time>2017-12-03T09:38:14Z</time>
      </trkpt>
      <trkpt lat="50.62665" lon="3.19539">
        <ele>-131</ele>
        <time>2017-12-03T09:38:18Z</time>
      </trkpt>
      <trkpt lat="50.62652" lon="3.19562">
        <ele>-131</ele>
        <time>2017-12-03T09:38:22Z</time>
      </trkpt>
      <trkpt lat="50.62633" lon="3.19574">
        <ele>-132</ele>
        <time>2017-12-03T09:38:26Z</time>
      </trkpt>
      <trkpt lat="50.62614" lon="3.19588">
        <ele>-131</ele>
        <time>2017-12-03T09:38:30Z</time>
      </trkpt>
      <trkpt lat="50.62595" lon="3.196">
        <ele>-130</ele>
        <time>2017-12-03T09:38:34Z</time>
      </trkpt>
      <trkpt lat="50.62575" lon="3.19612">
        <ele>-131</ele>
        <time>2017-12-03T09:38:38Z</time>
      </trkpt>
      <trkpt lat="50.62557" lon="3.19624">
        <ele>-131</ele>
        <time>2017-12-03T09:38:42Z</time>
      </trkpt>
      <trkpt lat="50.6254" lon="3.19634">
        <ele>-131</ele>
        <time>2017-12-03T09:38:46Z</time>
      </trkpt>
      <trkpt lat="50.62529" lon="3.19643">
        <ele>-131</ele>
        <time>2017-12-03T09:38:50Z</time>
      </trkpt>
      <trkpt lat="50.62514" lon="3.19651">
        <ele>-131</ele>
        <time>2017-12-03T09:38:54Z</time>
      </trkpt>
      <trkpt lat="50.62495" lon="3.19663">
        <ele>-130</ele>
        <time>2017-12-03T09:38:58Z</time>
      </trkpt>
      <trkpt lat="50.62473" lon="3.19678">
        <ele>-131</ele>
        <time>2017-12-03T09:39:02Z</time>
      </trkpt>
      <trkpt lat="50.62453" lon="3.19697">
        <ele>-131</ele>
        <time>2017-12-03T09:39:06Z</time>
      </trkpt>
      <trkpt lat="50.62431" lon="3.19705">
        <ele>-131</ele>
        <time>2017-12-03T09:39:10Z</time>
      </trkpt>
      <trkpt lat="50.62407" lon="3.19695">
        <ele>-131</ele>
        <time>2017-12-03T09:39:14Z</time>
      </trkpt>
      <trkpt lat="50.62383" lon="3.19687">
        <ele>-130</ele>
        <time>2017-12-03T09:39:18Z</time>
      </trkpt>
      <trkpt lat="50.62358" lon="3.19687">
        <ele>-130</ele>
        <time>2017-12-03T09:39:22Z</time>
      </trkpt>
      <trkpt lat="50.62333" lon="3.19688">
        <ele>-131</ele>
        <time>2017-12-03T09:39:26Z</time>
      </trkpt>
      <trkpt lat="50.6231" lon="3.1969">
        <ele>-130</ele>
        <time>2017-12-03T09:39:30Z</time>
      </trkpt>
      <trkpt lat="50.62286" lon="3.19696">
        <ele>-130</ele>
        <time>2017-12-03T09:39:34Z</time>
      </trkpt>
      <trkpt lat="50.62266" lon="3.19697">
        <ele>-130</ele>
        <time>2017-12-03T09:39:38Z</time>
      </trkpt>
      <trkpt lat="50.62243" lon="3.19696">
        <ele>-131</ele>
        <time>2017-12-03T09:39:42Z</time>
      </trkpt>
      <trkpt lat="50.6222" lon="3.19691">
        <ele>-131</ele>
        <time>2017-12-03T09:39:46Z</time>
      </trkpt>
      <trkpt lat="50.62201" lon="3.19705">
        <ele>-130</ele>
        <time>2017-12-03T09:39:50Z</time>
      </trkpt>
      <trkpt lat="50.62187" lon="3.19735">
        <ele>-131</ele>
        <time>2017-12-03T09:39:54Z</time>
      </trkpt>
      <trkpt lat="50.62165" lon="3.19746">
        <ele>-130</ele>
        <time>2017-12-03T09:39:58Z</time>
      </trkpt>
      <trkpt lat="50.62142" lon="3.19739">
        <ele>-131</ele>
        <time>2017-12-03T09:40:02Z</time>
      </trkpt>
      <trkpt lat="50.62124" lon="3.19725">
        <ele>-130</ele>
        <time>2017-12-03T09:40:06Z</time>
      </trkpt>
      <trkpt lat="50.62108" lon="3.19725">
        <ele>-130</ele>
        <time>2017-12-03T09:40:10Z</time>
      </trkpt>
      <trkpt lat="50.62107" lon="3.19748">
        <ele>-130</ele>
        <time>2017-12-03T09:40:14Z</time>
      </trkpt>
      <trkpt lat="50.62108" lon="3.19783">
        <ele>-130</ele>
        <time>2017-12-03T09:40:18Z</time>
      </trkpt>
      <trkpt lat="50.62107" lon="3.19821">
        <ele>-131</ele>
        <time>2017-12-03T09:40:22Z</time>
      </trkpt>
      <trkpt lat="50.62106" lon="3.19862">
        <ele>-131</ele>
        <time>2017-12-03T09:40:26Z</time>
      </trkpt>
      <trkpt lat="50.62106" lon="3.199">
        <ele>-131</ele>
        <time>2017-12-03T09:40:30Z</time>
      </trkpt>
      <trkpt lat="50.62106" lon="3.19939">
        <ele>-131</ele>
        <time>2017-12-03T09:40:34Z</time>
      </trkpt>
      <trkpt lat="50.62104" lon="3.19977">
        <ele>-131</ele>
        <time>2017-12-03T09:40:38Z</time>
      </trkpt>
      <trkpt lat="50.62104" lon="3.20016">
        <ele>-131</ele>
        <time>2017-12-03T09:40:42Z</time>
      </trkpt>
      <trkpt lat="50.62104" lon="3.20055">
        <ele>-131</ele>
        <time>2017-12-03T09:40:46Z</time>
      </trkpt>
      <trkpt lat="50.62103" lon="3.20094">
        <ele>-131</ele>
        <time>2017-12-03T09:40:50Z</time>
      </trkpt>
      <trkpt lat="50.62103" lon="3.20132">
        <ele>-131</ele>
        <time>2017-12-03T09:40:54Z</time>
      </trkpt>
      <trkpt lat="50.62102" lon="3.20169">
        <ele>-131</ele>
        <time>2017-12-03T09:40:58Z</time>
      </trkpt>
      <trkpt lat="50.62102" lon="3.20207">
        <ele>-130</ele>
        <time>2017-12-03T09:41:02Z</time>
      </trkpt>
      <trkpt lat="50.62103" lon="3.20245">
        <ele>-130</ele>
        <time>2017-12-03T09:41:06Z</time>
      </trkpt>
      <trkpt lat="50.62103" lon="3.20282">
        <ele>-130</ele>
        <time>2017-12-03T09:41:10Z</time>
      </trkpt>
      <trkpt lat="50.62102" lon="3.20313">
        <ele>-130</ele>
        <time>2017-12-03T09:41:14Z</time>
      </trkpt>
      <trkpt lat="50.62085" lon="3.20319">
        <ele>-131</ele>
        <time>2017-12-03T09:41:18Z</time>
      </trkpt>
      <trkpt lat="50.62066" lon="3.20317">
        <ele>-130</ele>
        <time>2017-12-03T09:41:22Z</time>
      </trkpt>
      <trkpt lat="50.62059" lon="3.20337">
        <ele>-131</ele>
        <time>2017-12-03T09:41:26Z</time>
      </trkpt>
      <trkpt lat="50.62059" lon="3.2037">
        <ele>-131</ele>
        <time>2017-12-03T09:41:30Z</time>
      </trkpt>
      <trkpt lat="50.6206" lon="3.20406">
        <ele>-131</ele>
        <time>2017-12-03T09:41:34Z</time>
      </trkpt>
      <trkpt lat="50.62059" lon="3.20443">
        <ele>-131</ele>
        <time>2017-12-03T09:41:38Z</time>
      </trkpt>
      <trkpt lat="50.62059" lon="3.20481">
        <ele>-131</ele>
        <time>2017-12-03T09:41:42Z</time>
      </trkpt>
      <trkpt lat="50.62059" lon="3.20518">
        <ele>-131</ele>
        <time>2017-12-03T09:41:46Z</time>
      </trkpt>
      <trkpt lat="50.6206" lon="3.20556">
        <ele>-131</ele>
        <time>2017-12-03T09:41:50Z</time>
      </trkpt>
      <trkpt lat="50.62059" lon="3.20594">
        <ele>-131</ele>
        <time>2017-12-03T09:41:54Z</time>
      </trkpt>
      <trkpt lat="50.62059" lon="3.2063">
        <ele>-132</ele>
        <time>2017-12-03T09:41:58Z</time>
      </trkpt>
      <trkpt lat="50.6206" lon="3.20666">
        <ele>-132</ele>
        <time>2017-12-03T09:42:02Z</time>
      </trkpt>
      <trkpt lat="50.6206" lon="3.20703">
        <ele>-131</ele>
        <time>2017-12-03T09:42:06Z</time>
      </trkpt>
      <trkpt lat="50.62059" lon="3.20743">
        <ele>-132</ele>
        <time>2017-12-03T09:42:10Z</time>
      </trkpt>
      <trkpt lat="50.62059" lon="3.20782">
        <ele>-132</ele>
        <time>2017-12-03T09:42:14Z</time>
      </trkpt>
      <trkpt lat="50.6206" lon="3.2082">
        <ele>-132</ele>
        <time>2017-12-03T09:42:18Z</time>
      </trkpt>
      <trkpt lat="50.62058" lon="3.20856">
        <ele>-132</ele>
        <time>2017-12-03T09:42:22Z</time>
      </trkpt>
      <trkpt lat="50.62058" lon="3.20893">
        <ele>-132</ele>
        <time>2017-12-03T09:42:26Z</time>
      </trkpt>
      <trkpt lat="50.62058" lon="3.20931">
        <ele>-132</ele>
        <time>2017-12-03T09:42:30Z</time>
      </trkpt>
      <trkpt lat="50.62059" lon="3.20973">
        <ele>-131</ele>
        <time>2017-12-03T09:42:34Z</time>
      </trkpt>
      <trkpt lat="50.6206" lon="3.21011">
        <ele>-132</ele>
        <time>2017-12-03T09:42:38Z</time>
      </trkpt>
      <trkpt lat="50.62059" lon="3.21045">
        <ele>-131</ele>
        <time>2017-12-03T09:42:42Z</time>
      </trkpt>
      <trkpt lat="50.62058" lon="3.21079">
        <ele>-131</ele>
        <time>2017-12-03T09:42:46Z</time>
      </trkpt>
      <trkpt lat="50.62059" lon="3.21114">
        <ele>-132</ele>
        <time>2017-12-03T09:42:50Z</time>
      </trkpt>
      <trkpt lat="50.62058" lon="3.21148">
        <ele>-131</ele>
        <time>2017-12-03T09:42:54Z</time>
      </trkpt>
      <trkpt lat="50.62059" lon="3.21185">
        <ele>-131</ele>
        <time>2017-12-03T09:42:58Z</time>
      </trkpt>
      <trkpt lat="50.62058" lon="3.21222">
        <ele>-132</ele>
        <time>2017-12-03T09:43:02Z</time>
      </trkpt>
      <trkpt lat="50.62058" lon="3.2126">
        <ele>-132</ele>
        <time>2017-12-03T09:43:06Z</time>
      </trkpt>
      <trkpt lat="50.62056" lon="3.21298">
        <ele>-131</ele>
        <time>2017-12-03T09:43:10Z</time>
      </trkpt>
      <trkpt lat="50.62057" lon="3.21336">
        <ele>-132</ele>
        <time>2017-12-03T09:43:14Z</time>
      </trkpt>
      <trkpt lat="50.62057" lon="3.2137">
        <ele>-131</ele>
        <time>2017-12-03T09:43:18Z</time>
      </trkpt>
      <trkpt lat="50.62057" lon="3.214">
        <ele>-132</ele>
        <time>2017-12-03T09:43:22Z</time>
      </trkpt>
      <trkpt lat="50.62056" lon="3.21426">
        <ele>-132</ele>
        <time>2017-12-03T09:43:26Z</time>
      </trkpt>
      <trkpt lat="50.62058" lon="3.21447">
        <ele>-132</ele>
        <time>2017-12-03T09:43:30Z</time>
      </trkpt>
      <trkpt lat="50.6206" lon="3.21461">
        <ele>-132</ele>
        <time>2017-12-03T09:43:34Z</time>
      </trkpt>
      <trkpt lat="50.62072" lon="3.21468">
        <ele>-131</ele>
        <time>2017-12-03T09:43:38Z</time>
      </trkpt>
      <trkpt lat="50.62086" lon="3.21474">
        <ele>-132</ele>
        <time>2017-12-03T09:43:42Z</time>
      </trkpt>
      <trkpt lat="50.62096" lon="3.21487">
        <ele>-132</ele>
        <time>2017-12-03T09:43:46Z</time>
      </trkpt>
      <trkpt lat="50.6209" lon="3.21505">
        <ele>-132</ele>
        <time>2017-12-03T09:43:50Z</time>
      </trkpt>
      <trkpt lat="50.62086" lon="3.21522">
        <ele>-132</ele>
        <time>2017-12-03T09:43:54Z</time>
      </trkpt>
      <trkpt lat="50.62077" lon="3.21549">
        <ele>-132</ele>
        <time>2017-12-03T09:43:58Z</time>
      </trkpt>
      <trkpt lat="50.62069" lon="3.21576">
        <ele>-131</ele>
        <time>2017-12-03T09:44:02Z</time>
      </trkpt>
      <trkpt lat="50.6206" lon="3.21602">
        <ele>-132</ele>
        <time>2017-12-03T09:44:06Z</time>
      </trkpt>
      <trkpt lat="50.62052" lon="3.21629">
        <ele>-131</ele>
        <time>2017-12-03T09:44:10Z</time>
      </trkpt>
      <trkpt lat="50.62044" lon="3.21659">
        <ele>-131</ele>
        <time>2017-12-03T09:44:14Z</time>
      </trkpt>
      <trkpt lat="50.62034" lon="3.21688">
        <ele>-132</ele>
        <time>2017-12-03T09:44:18Z</time>
      </trkpt>
      <trkpt lat="50.62024" lon="3.21717">
        <ele>-131</ele>
        <time>2017-12-03T09:44:22Z</time>
      </trkpt>
      <trkpt lat="50.62014" lon="3.21746">
        <ele>-131</ele>
        <time>2017-12-03T09:44:26Z</time>
      </trkpt>
      <trkpt lat="50.62004" lon="3.21774">
        <ele>-131</ele>
        <time>2017-12-03T09:44:30Z</time>
      </trkpt>
      <trkpt lat="50.61995" lon="3.21804">
        <ele>-131</ele>
        <time>2017-12-03T09:44:34Z</time>
      </trkpt>
      <trkpt lat="50.61986" lon="3.21832">
        <ele>-132</ele>
        <time>2017-12-03T09:44:38Z</time>
      </trkpt>
      <trkpt lat="50.61976" lon="3.2186">
        <ele>-131</ele>
        <time>2017-12-03T09:44:42Z</time>
      </trkpt>
      <trkpt lat="50.61966" lon="3.21889">
        <ele>-131</ele>
        <time>2017-12-03T09:44:46Z</time>
      </trkpt>
      <trkpt lat="50.61955" lon="3.21919">
        <ele>-130</ele>
        <time>2017-12-03T09:44:50Z</time>
      </trkpt>
      <trkpt lat="50.61946" lon="3.21948">
        <ele>-131</ele>
        <time>2017-12-03T09:44:54Z</time>
      </trkpt>
      <trkpt lat="50.61942" lon="3.21978">
        <ele>-131</ele>
        <time>2017-12-03T09:44:58Z</time>
      </trkpt>
      <trkpt lat="50.61947" lon="3.22">
        <ele>-130</ele>
        <time>2017-12-03T09:45:02Z</time>
      </trkpt>
      <trkpt lat="50.61963" lon="3.22008">
        <ele>-131</ele>
        <time>2017-12-03T09:45:06Z</time>
      </trkpt>
      <trkpt lat="50.61984" lon="3.22015">
        <ele>-131</ele>
        <time>2017-12-03T09:45:10Z</time>
      </trkpt>
      <trkpt lat="50.62005" lon="3.22023">
        <ele>-131</ele>
        <time>2017-12-03T09:45:14Z</time>
      </trkpt>
      <trkpt lat="50.62026" lon="3.22029">
        <ele>-131</ele>
        <time>2017-12-03T09:45:18Z</time>
      </trkpt>
      <trkpt lat="50.62047" lon="3.22035">
        <ele>-131</ele>
        <time>2017-12-03T09:45:22Z</time>
      </trkpt>
      <trkpt lat="50.62068" lon="3.22043">
        <ele>-131</ele>
        <time>2017-12-03T09:45:26Z</time>
      </trkpt>
      <trkpt lat="50.62089" lon="3.22051">
        <ele>-131</ele>
        <time>2017-12-03T09:45:30Z</time>
      </trkpt>
      <trkpt lat="50.62109" lon="3.22057">
        <ele>-131</ele>
        <time>2017-12-03T09:45:34Z</time>
      </trkpt>
      <trkpt lat="50.62129" lon="3.22063">
        <ele>-132</ele>
        <time>2017-12-03T09:45:38Z</time>
      </trkpt>
      <trkpt lat="50.62147" lon="3.22069">
        <ele>-132</ele>
        <time>2017-12-03T09:45:42Z</time>
      </trkpt>
      <trkpt lat="50.62155" lon="3.22088">
        <ele>-132</ele>
        <time>2017-12-03T09:45:46Z</time>
      </trkpt>
      <trkpt lat="50.62147" lon="3.22111">
        <ele>-132</ele>
        <time>2017-12-03T09:45:50Z</time>
      </trkpt>
      <trkpt lat="50.62139" lon="3.22135">
        <ele>-131</ele>
        <time>2017-12-03T09:45:54Z</time>
      </trkpt>
      <trkpt lat="50.6213" lon="3.22162">
        <ele>-132</ele>
        <time>2017-12-03T09:45:58Z</time>
      </trkpt>
      <trkpt lat="50.6212" lon="3.22192">
        <ele>-131</ele>
        <time>2017-12-03T09:46:02Z</time>
      </trkpt>
      <trkpt lat="50.6211" lon="3.22221">
        <ele>-130</ele>
        <time>2017-12-03T09:46:06Z</time>
      </trkpt>
      <trkpt lat="50.62101" lon="3.22252">
        <ele>-131</ele>
        <time>2017-12-03T09:46:10Z</time>
      </trkpt>
      <trkpt lat="50.62091" lon="3.22281">
        <ele>-130</ele>
        <time>2017-12-03T09:46:14Z</time>
      </trkpt>
      <trkpt lat="50.6208" lon="3.22312">
        <ele>-131</ele>
        <time>2017-12-03T09:46:18Z</time>
      </trkpt>
      <trkpt lat="50.6207" lon="3.22342">
        <ele>-131</ele>
        <time>2017-12-03T09:46:22Z</time>
      </trkpt>
      <trkpt lat="50.6206" lon="3.22374">
        <ele>-131</ele>
        <time>2017-12-03T09:46:26Z</time>
      </trkpt>
      <trkpt lat="50.6205" lon="3.22404">
        <ele>-131</ele>
        <time>2017-12-03T09:46:30Z</time>
      </trkpt>
      <trkpt lat="50.62038" lon="3.22436">
        <ele>-130</ele>
        <time>2017-12-03T09:46:34Z</time>
      </trkpt>
      <trkpt lat="50.62028" lon="3.22468">
        <ele>-131</ele>
        <time>2017-12-03T09:46:38Z</time>
      </trkpt>
      <trkpt lat="50.62017" lon="3.22499">
        <ele>-130</ele>
        <time>2017-12-03T09:46:42Z</time>
      </trkpt>
      <trkpt lat="50.62007" lon="3.2253">
        <ele>-130</ele>
        <time>2017-12-03T09:46:46Z</time>
      </trkpt>
      <trkpt lat="50.61997" lon="3.2256">
        <ele>-130</ele>
        <time>2017-12-03T09:46:50Z</time>
      </trkpt>
      <trkpt lat="50.61988" lon="3.22587">
        <ele>-130</ele>
        <time>2017-12-03T09:46:54Z</time>
      </trkpt>
      <trkpt lat="50.61978" lon="3.22613">
        <ele>-130</ele>
        <time>2017-12-03T09:46:58Z</time>
      </trkpt>
      <trkpt lat="50.61973" lon="3.22633">
        <ele>-131</ele>
        <time>2017-12-03T09:47:02Z</time>
      </trkpt>
      <trkpt lat="50.61982" lon="3.22645">
        <ele>-131</ele>
        <time>2017-12-03T09:47:06Z</time>
      </trkpt>
      <trkpt lat="50.61995" lon="3.2266">
        <ele>-130</ele>
        <time>2017-12-03T09:47:10Z</time>
      </trkpt>
      <trkpt lat="50.6201" lon="3.22677">
        <ele>-132</ele>
        <time>2017-12-03T09:47:14Z</time>
      </trkpt>
      <trkpt lat="50.62026" lon="3.22696">
        <ele>-132</ele>
        <time>2017-12-03T09:47:18Z</time>
      </trkpt>
      <trkpt lat="50.62041" lon="3.22714">
        <ele>-132</ele>
        <time>2017-12-03T09:47:22Z</time>
      </trkpt>
      <trkpt lat="50.62056" lon="3.22733">
        <ele>-132</ele>
        <time>2017-12-03T09:47:26Z</time>
      </trkpt>
      <trkpt lat="50.62067" lon="3.22755">
        <ele>-131</ele>
        <time>2017-12-03T09:47:30Z</time>
      </trkpt>
      <trkpt lat="50.62063" lon="3.22783">
        <ele>-131</ele>
        <time>2017-12-03T09:47:34Z</time>
      </trkpt>
      <trkpt lat="50.62057" lon="3.2281">
        <ele>-131</ele>
        <time>2017-12-03T09:47:38Z</time>
      </trkpt>
      <trkpt lat="50.62053" lon="3.2283">
        <ele>-131</ele>
        <time>2017-12-03T09:47:42Z</time>
      </trkpt>
      <trkpt lat="50.62048" lon="3.22851">
        <ele>-131</ele>
        <time>2017-12-03T09:47:46Z</time>
      </trkpt>
      <trkpt lat="50.62043" lon="3.22876">
        <ele>-131</ele>
        <time>2017-12-03T09:47:50Z</time>
      </trkpt>
      <trkpt lat="50.62038" lon="3.22904">
        <ele>-131</ele>
        <time>2017-12-03T09:47:54Z</time>
      </trkpt>
      <trkpt lat="50.62034" lon="3.22933">
        <ele>-131</ele>
        <time>2017-12-03T09:47:58Z</time>
      </trkpt>
      <trkpt lat="50.62029" lon="3.22963">
        <ele>-131</ele>
        <time>2017-12-03T09:48:02Z</time>
      </trkpt>
      <trkpt lat="50.62024" lon="3.22993">
        <ele>-130</ele>
        <time>2017-12-03T09:48:06Z</time>
      </trkpt>
      <trkpt lat="50.62021" lon="3.23021">
        <ele>-130</ele>
        <time>2017-12-03T09:48:10Z</time>
      </trkpt>
      <trkpt lat="50.62029" lon="3.23044">
        <ele>-130</ele>
        <time>2017-12-03T09:48:14Z</time>
      </trkpt>
      <trkpt lat="50.62033" lon="3.23066">
        <ele>-130</ele>
        <time>2017-12-03T09:48:18Z</time>
      </trkpt>
      <trkpt lat="50.62025" lon="3.23088">
        <ele>-130</ele>
        <time>2017-12-03T09:48:22Z</time>
      </trkpt>
      <trkpt lat="50.62013" lon="3.2311">
        <ele>-130</ele>
        <time>2017-12-03T09:48:26Z</time>
      </trkpt>
      <trkpt lat="50.61999" lon="3.23124">
        <ele>-130</ele>
        <time>2017-12-03T09:48:30Z</time>
      </trkpt>
      <trkpt lat="50.61992" lon="3.23134">
        <ele>-130</ele>
        <time>2017-12-03T09:48:34Z</time>
      </trkpt>
      <trkpt lat="50.62002" lon="3.2315">
        <ele>-130</ele>
        <time>2017-12-03T09:48:38Z</time>
      </trkpt>
      <trkpt lat="50.62015" lon="3.23172">
        <ele>-130</ele>
        <time>2017-12-03T09:48:42Z</time>
      </trkpt>
      <trkpt lat="50.62029" lon="3.23195">
        <ele>-131</ele>
        <time>2017-12-03T09:48:46Z</time>
      </trkpt>
      <trkpt lat="50.62043" lon="3.23217">
        <ele>-130</ele>
        <time>2017-12-03T09:48:50Z</time>
      </trkpt>
      <trkpt lat="50.62057" lon="3.23238">
        <ele>-131</ele>
        <time>2017-12-03T09:48:54Z</time>
      </trkpt>
      <trkpt lat="50.62071" lon="3.2326">
        <ele>-130</ele>
        <time>2017-12-03T09:48:58Z</time>
      </trkpt>
      <trkpt lat="50.62085" lon="3.23282">
        <ele>-130</ele>
        <time>2017-12-03T09:49:02Z</time>
      </trkpt>
      <trkpt lat="50.62099" lon="3.23303">
        <ele>-131</ele>
        <time>2017-12-03T09:49:06Z</time>
      </trkpt>
      <trkpt lat="50.62115" lon="3.23323">
        <ele>-130</ele>
        <time>2017-12-03T09:49:10Z</time>
      </trkpt>
      <trkpt lat="50.6213" lon="3.23339">
        <ele>-131</ele>
        <time>2017-12-03T09:49:14Z</time>
      </trkpt>
      <trkpt lat="50.62145" lon="3.23356">
        <ele>-131</ele>
        <time>2017-12-03T09:49:18Z</time>
      </trkpt>
      <trkpt lat="50.62147" lon="3.23374">
        <ele>-130</ele>
        <time>2017-12-03T09:49:22Z</time>
      </trkpt>
      <trkpt lat="50.62149" lon="3.23375">
        <ele>-131</ele>
        <time>2017-12-03T09:49:58Z</time>
      </trkpt>
      <trkpt lat="50.62152" lon="3.23377">
        <ele>-131</ele>
        <time>2017-12-03T09:50:06Z</time>
      </trkpt>
      <trkpt lat="50.6216" lon="3.2338">
        <ele>-131</ele>
        <time>2017-12-03T09:50:10Z</time>
      </trkpt>
      <trkpt lat="50.62174" lon="3.23384">
        <ele>-130</ele>
        <time>2017-12-03T09:50:14Z</time>
      </trkpt>
      <trkpt lat="50.62186" lon="3.23385">
        <ele>-131</ele>
        <time>2017-12-03T09:50:18Z</time>
      </trkpt>
      <trkpt lat="50.62192" lon="3.23401">
        <ele>-131</ele>
        <time>2017-12-03T09:50:22Z</time>
      </trkpt>
      <trkpt lat="50.62196" lon="3.23425">
        <ele>-131</ele>
        <time>2017-12-03T09:50:26Z</time>
      </trkpt>
      <trkpt lat="50.622" lon="3.23447">
        <ele>-130</ele>
        <time>2017-12-03T09:50:30Z</time>
      </trkpt>
      <trkpt lat="50.62203" lon="3.23472">
        <ele>-130</ele>
        <time>2017-12-03T09:50:34Z</time>
      </trkpt>
      <trkpt lat="50.62207" lon="3.23497">
        <ele>-130</ele>
        <time>2017-12-03T09:50:38Z</time>
      </trkpt>
      <trkpt lat="50.6221" lon="3.23518">
        <ele>-131</ele>
        <time>2017-12-03T09:50:42Z</time>
      </trkpt>
      <trkpt lat="50.62211" lon="3.23525">
        <ele>-130</ele>
        <time>2017-12-03T09:50:54Z</time>
      </trkpt>
      <trkpt lat="50.62212" lon="3.23539">
        <ele>-131</ele>
        <time>2017-12-03T09:50:58Z</time>
      </trkpt>
      <trkpt lat="50.62213" lon="3.23563">
        <ele>-131</ele>
        <time>2017-12-03T09:51:02Z</time>
      </trkpt>
      <trkpt lat="50.62214" lon="3.23589">
        <ele>-131</ele>
        <time>2017-12-03T09:51:06Z</time>
      </trkpt>
      <trkpt lat="50.62217" lon="3.23616">
        <ele>-130</ele>
        <time>2017-12-03T09:51:10Z</time>
      </trkpt>
      <trkpt lat="50.62224" lon="3.23639">
        <ele>-130</ele>
        <time>2017-12-03T09:51:14Z</time>
      </trkpt>
      <trkpt lat="50.62229" lon="3.2366">
        <ele>-130</ele>
        <time>2017-12-03T09:51:18Z</time>
      </trkpt>
      <trkpt lat="50.6223" lon="3.23684">
        <ele>-129</ele>
        <time>2017-12-03T09:51:22Z</time>
      </trkpt>
      <trkpt lat="50.62229" lon="3.2371">
        <ele>-130</ele>
        <time>2017-12-03T09:51:26Z</time>
      </trkpt>
      <trkpt lat="50.62226" lon="3.23735">
        <ele>-130</ele>
        <time>2017-12-03T09:51:30Z</time>
      </trkpt>
      <trkpt lat="50.62224" lon="3.23763">
        <ele>-129</ele>
        <time>2017-12-03T09:51:34Z</time>
      </trkpt>
      <trkpt lat="50.62221" lon="3.23789">
        <ele>-129</ele>
        <time>2017-12-03T09:51:38Z</time>
      </trkpt>
      <trkpt lat="50.62217" lon="3.23815">
        <ele>-129</ele>
        <time>2017-12-03T09:51:42Z</time>
      </trkpt>
      <trkpt lat="50.62213" lon="3.23842">
        <ele>-129</ele>
        <time>2017-12-03T09:51:46Z</time>
      </trkpt>
      <trkpt lat="50.6221" lon="3.23869">
        <ele>-129</ele>
        <time>2017-12-03T09:51:50Z</time>
      </trkpt>
      <trkpt lat="50.62206" lon="3.23896">
        <ele>-129</ele>
        <time>2017-12-03T09:51:54Z</time>
      </trkpt>
      <trkpt lat="50.62201" lon="3.23922">
        <ele>-129</ele>
        <time>2017-12-03T09:51:58Z</time>
      </trkpt>
      <trkpt lat="50.62197" lon="3.23949">
        <ele>-129</ele>
        <time>2017-12-03T09:52:02Z</time>
      </trkpt>
      <trkpt lat="50.62193" lon="3.23976">
        <ele>-129</ele>
        <time>2017-12-03T09:52:06Z</time>
      </trkpt>
      <trkpt lat="50.62189" lon="3.24003">
        <ele>-129</ele>
        <time>2017-12-03T09:52:10Z</time>
      </trkpt>
      <trkpt lat="50.62186" lon="3.24029">
        <ele>-129</ele>
        <time>2017-12-03T09:52:14Z</time>
      </trkpt>
      <trkpt lat="50.62183" lon="3.24056">
        <ele>-129</ele>
        <time>2017-12-03T09:52:18Z</time>
      </trkpt>
      <trkpt lat="50.6218" lon="3.24084">
        <ele>-129</ele>
        <time>2017-12-03T09:52:22Z</time>
      </trkpt>
      <trkpt lat="50.62177" lon="3.24109">
        <ele>-128</ele>
        <time>2017-12-03T09:52:26Z</time>
      </trkpt>
      <trkpt lat="50.62176" lon="3.24131">
        <ele>-129</ele>
        <time>2017-12-03T09:52:30Z</time>
      </trkpt>
      <trkpt lat="50.62174" lon="3.24153">
        <ele>-129</ele>
        <time>2017-12-03T09:52:34Z</time>
      </trkpt>
      <trkpt lat="50.62174" lon="3.24176">
        <ele>-128</ele>
        <time>2017-12-03T09:52:38Z</time>
      </trkpt>
      <trkpt lat="50.62172" lon="3.242">
        <ele>-128</ele>
        <time>2017-12-03T09:52:42Z</time>
      </trkpt>
      <trkpt lat="50.6217" lon="3.24224">
        <ele>-127</ele>
        <time>2017-12-03T09:52:46Z</time>
      </trkpt>
      <trkpt lat="50.62169" lon="3.24248">
        <ele>-127</ele>
        <time>2017-12-03T09:52:50Z</time>
      </trkpt>
      <trkpt lat="50.62168" lon="3.24269">
        <ele>-128</ele>
        <time>2017-12-03T09:52:54Z</time>
      </trkpt>
      <trkpt lat="50.62167" lon="3.24291">
        <ele>-127</ele>
        <time>2017-12-03T09:52:58Z</time>
      </trkpt>
      <trkpt lat="50.62165" lon="3.24316">
        <ele>-127</ele>
        <time>2017-12-03T09:53:02Z</time>
      </trkpt>
      <trkpt lat="50.6216" lon="3.24338">
        <ele>-127</ele>
        <time>2017-12-03T09:53:06Z</time>
      </trkpt>
      <trkpt lat="50.62151" lon="3.2436">
        <ele>-128</ele>
        <time>2017-12-03T09:53:10Z</time>
      </trkpt>
      <trkpt lat="50.6214" lon="3.24378">
        <ele>-128</ele>
        <time>2017-12-03T09:53:14Z</time>
      </trkpt>
      <trkpt lat="50.62133" lon="3.24393">
        <ele>-128</ele>
        <time>2017-12-03T09:53:18Z</time>
      </trkpt>
      <trkpt lat="50.62133" lon="3.24415">
        <ele>-129</ele>
        <time>2017-12-03T09:53:22Z</time>
      </trkpt>
      <trkpt lat="50.62134" lon="3.24437">
        <ele>-128</ele>
        <time>2017-12-03T09:53:26Z</time>
      </trkpt>
      <trkpt lat="50.62133" lon="3.24459">
        <ele>-128</ele>
        <time>2017-12-03T09:53:30Z</time>
      </trkpt>
      <trkpt lat="50.62133" lon="3.24483">
        <ele>-128</ele>
        <time>2017-12-03T09:53:34Z</time>
      </trkpt>
      <trkpt lat="50.62132" lon="3.24508">
        <ele>-128</ele>
        <time>2017-12-03T09:53:38Z</time>
      </trkpt>
      <trkpt lat="50.6213" lon="3.24532">
        <ele>-128</ele>
        <time>2017-12-03T09:53:42Z</time>
      </trkpt>
      <trkpt lat="50.62125" lon="3.24552">
        <ele>-128</ele>
        <time>2017-12-03T09:53:46Z</time>
      </trkpt>
      <trkpt lat="50.62122" lon="3.24567">
        <ele>-128</ele>
        <time>2017-12-03T09:53:50Z</time>
      </trkpt>
      <trkpt lat="50.62119" lon="3.24578">
        <ele>-128</ele>
        <time>2017-12-03T09:53:54Z</time>
      </trkpt>
      <trkpt lat="50.62117" lon="3.24584">
        <ele>-128</ele>
        <time>2017-12-03T09:54:26Z</time>
      </trkpt>
      <trkpt lat="50.62113" lon="3.24585">
        <ele>-128</ele>
        <time>2017-12-03T09:54:38Z</time>
      </trkpt>
      <trkpt lat="50.62115" lon="3.24585">
        <ele>-128</ele>
        <time>2017-12-03T09:54:54Z</time>
      </trkpt>
      <trkpt lat="50.62118" lon="3.24578">
        <ele>-128</ele>
        <time>2017-12-03T09:54:58Z</time>
      </trkpt>
      <trkpt lat="50.6212" lon="3.2457">
        <ele>-128</ele>
        <time>2017-12-03T09:55:02Z</time>
      </trkpt>
      <trkpt lat="50.62121" lon="3.24559">
        <ele>-128</ele>
        <time>2017-12-03T09:55:06Z</time>
      </trkpt>
      <trkpt lat="50.62123" lon="3.24565">
        <ele>-128</ele>
        <time>2017-12-03T09:55:10Z</time>
      </trkpt>
      <trkpt lat="50.62118" lon="3.24579">
        <ele>-128</ele>
        <time>2017-12-03T09:55:14Z</time>
      </trkpt>
      <trkpt lat="50.62113" lon="3.24594">
        <ele>-128</ele>
        <time>2017-12-03T09:55:18Z</time>
      </trkpt>
      <trkpt lat="50.62108" lon="3.24613">
        <ele>-128</ele>
        <time>2017-12-03T09:55:22Z</time>
      </trkpt>
      <trkpt lat="50.62103" lon="3.24628">
        <ele>-128</ele>
        <time>2017-12-03T09:55:26Z</time>
      </trkpt>
      <trkpt lat="50.62097" lon="3.24644">
        <ele>-128</ele>
        <time>2017-12-03T09:55:30Z</time>
      </trkpt>
      <trkpt lat="50.62092" lon="3.24663">
        <ele>-127</ele>
        <time>2017-12-03T09:55:34Z</time>
      </trkpt>
      <trkpt lat="50.62091" lon="3.24684">
        <ele>-128</ele>
        <time>2017-12-03T09:55:38Z</time>
      </trkpt>
      <trkpt lat="50.62099" lon="3.24701">
        <ele>-127</ele>
        <time>2017-12-03T09:55:42Z</time>
      </trkpt>
      <trkpt lat="50.62111" lon="3.24715">
        <ele>-128</ele>
        <time>2017-12-03T09:55:46Z</time>
      </trkpt>
      <trkpt lat="50.62122" lon="3.24733">
        <ele>-128</ele>
        <time>2017-12-03T09:55:50Z</time>
      </trkpt>
      <trkpt lat="50.62129" lon="3.24753">
        <ele>-128</ele>
        <time>2017-12-03T09:55:54Z</time>
      </trkpt>
      <trkpt lat="50.62137" lon="3.24771">
        <ele>-128</ele>
        <time>2017-12-03T09:55:58Z</time>
      </trkpt>
      <trkpt lat="50.6215" lon="3.24784">
        <ele>-128</ele>
        <time>2017-12-03T09:56:02Z</time>
      </trkpt>
      <trkpt lat="50.62164" lon="3.24795">
        <ele>-128</ele>
        <time>2017-12-03T09:56:06Z</time>
      </trkpt>
      <trkpt lat="50.62178" lon="3.24805">
        <ele>-128</ele>
        <time>2017-12-03T09:56:10Z</time>
      </trkpt>
      <trkpt lat="50.62191" lon="3.24817">
        <ele>-128</ele>
        <time>2017-12-03T09:56:14Z</time>
      </trkpt>
      <trkpt lat="50.62201" lon="3.24834">
        <ele>-129</ele>
        <time>2017-12-03T09:56:18Z</time>
      </trkpt>
      <trkpt lat="50.62211" lon="3.24852">
        <ele>-128</ele>
        <time>2017-12-03T09:56:22Z</time>
      </trkpt>
      <trkpt lat="50.62222" lon="3.2487">
        <ele>-129</ele>
        <time>2017-12-03T09:56:26Z</time>
      </trkpt>
      <trkpt lat="50.62233" lon="3.24888">
        <ele>-128</ele>
        <time>2017-12-03T09:56:30Z</time>
      </trkpt>
      <trkpt lat="50.62243" lon="3.24909">
        <ele>-129</ele>
        <time>2017-12-03T09:56:34Z</time>
      </trkpt>
      <trkpt lat="50.62247" lon="3.24937">
        <ele>-128</ele>
        <time>2017-12-03T09:56:38Z</time>
      </trkpt>
      <trkpt lat="50.62244" lon="3.24964">
        <ele>-128</ele>
        <time>2017-12-03T09:56:42Z</time>
      </trkpt>
      <trkpt lat="50.62239" lon="3.24992">
        <ele>-128</ele>
        <time>2017-12-03T09:56:46Z</time>
      </trkpt>
      <trkpt lat="50.62237" lon="3.25024">
        <ele>-128</ele>
        <time>2017-12-03T09:56:50Z</time>
      </trkpt>
      <trkpt lat="50.62238" lon="3.25058">
        <ele>-128</ele>
        <time>2017-12-03T09:56:54Z</time>
      </trkpt>
      <trkpt lat="50.62246" lon="3.2509">
        <ele>-128</ele>
        <time>2017-12-03T09:56:58Z</time>
      </trkpt>
      <trkpt lat="50.6226" lon="3.2512">
        <ele>-127</ele>
        <time>2017-12-03T09:57:02Z</time>
      </trkpt>
      <trkpt lat="50.62272" lon="3.25154">
        <ele>-127</ele>
        <time>2017-12-03T09:57:06Z</time>
      </trkpt>
      <trkpt lat="50.62281" lon="3.2519">
        <ele>-127</ele>
        <time>2017-12-03T09:57:10Z</time>
      </trkpt>
      <trkpt lat="50.62293" lon="3.25225">
        <ele>-127</ele>
        <time>2017-12-03T09:57:14Z</time>
      </trkpt>
      <trkpt lat="50.62307" lon="3.25257">
        <ele>-127</ele>
        <time>2017-12-03T09:57:18Z</time>
      </trkpt>
      <trkpt lat="50.62324" lon="3.25285">
        <ele>-127</ele>
        <time>2017-12-03T09:57:22Z</time>
      </trkpt>
      <trkpt lat="50.62336" lon="3.25319">
        <ele>-127</ele>
        <time>2017-12-03T09:57:26Z</time>
      </trkpt>
      <trkpt lat="50.6233" lon="3.25354">
        <ele>-127</ele>
        <time>2017-12-03T09:57:30Z</time>
      </trkpt>
      <trkpt lat="50.62313" lon="3.25379">
        <ele>-127</ele>
        <time>2017-12-03T09:57:34Z</time>
      </trkpt>
      <trkpt lat="50.62301" lon="3.25412">
        <ele>-127</ele>
        <time>2017-12-03T09:57:38Z</time>
      </trkpt>
      <trkpt lat="50.62294" lon="3.25448">
        <ele>-126</ele>
        <time>2017-12-03T09:57:42Z</time>
      </trkpt>
      <trkpt lat="50.62286" lon="3.25482">
        <ele>-127</ele>
        <time>2017-12-03T09:57:46Z</time>
      </trkpt>
      <trkpt lat="50.62277" lon="3.25513">
        <ele>-127</ele>
        <time>2017-12-03T09:57:50Z</time>
      </trkpt>
      <trkpt lat="50.62279" lon="3.2553">
        <ele>-127</ele>
        <time>2017-12-03T09:57:54Z</time>
      </trkpt>
      <trkpt lat="50.62292" lon="3.2553">
        <ele>-126</ele>
        <time>2017-12-03T09:57:58Z</time>
      </trkpt>
      <trkpt lat="50.62306" lon="3.2553">
        <ele>-126</ele>
        <time>2017-12-03T09:58:02Z</time>
      </trkpt>
      <trkpt lat="50.62321" lon="3.25533">
        <ele>-126</ele>
        <time>2017-12-03T09:58:06Z</time>
      </trkpt>
      <trkpt lat="50.62336" lon="3.25538">
        <ele>-126</ele>
        <time>2017-12-03T09:58:10Z</time>
      </trkpt>
      <trkpt lat="50.62353" lon="3.25544">
        <ele>-126</ele>
        <time>2017-12-03T09:58:14Z</time>
      </trkpt>
      <trkpt lat="50.6237" lon="3.25551">
        <ele>-125</ele>
        <time>2017-12-03T09:58:18Z</time>
      </trkpt>
      <trkpt lat="50.62388" lon="3.25556">
        <ele>-126</ele>
        <time>2017-12-03T09:58:22Z</time>
      </trkpt>
      <trkpt lat="50.62406" lon="3.25558">
        <ele>-126</ele>
        <time>2017-12-03T09:58:26Z</time>
      </trkpt>
      <trkpt lat="50.62424" lon="3.2556">
        <ele>-125</ele>
        <time>2017-12-03T09:58:30Z</time>
      </trkpt>
      <trkpt lat="50.62441" lon="3.25563">
        <ele>-126</ele>
        <time>2017-12-03T09:58:34Z</time>
      </trkpt>
      <trkpt lat="50.62457" lon="3.25571">
        <ele>-125</ele>
        <time>2017-12-03T09:58:38Z</time>
      </trkpt>
      <trkpt lat="50.62473" lon="3.25581">
        <ele>-124</ele>
        <time>2017-12-03T09:58:42Z</time>
      </trkpt>
      <trkpt lat="50.62488" lon="3.25592">
        <ele>-124</ele>
        <time>2017-12-03T09:58:46Z</time>
      </trkpt>
      <trkpt lat="50.62502" lon="3.25604">
        <ele>-123</ele>
        <time>2017-12-03T09:58:50Z</time>
      </trkpt>
      <trkpt lat="50.62517" lon="3.25615">
        <ele>-124</ele>
        <time>2017-12-03T09:58:54Z</time>
      </trkpt>
      <trkpt lat="50.62531" lon="3.25626">
        <ele>-124</ele>
        <time>2017-12-03T09:58:58Z</time>
      </trkpt>
      <trkpt lat="50.62543" lon="3.25636">
        <ele>-124</ele>
        <time>2017-12-03T09:59:02Z</time>
      </trkpt>
      <trkpt lat="50.62556" lon="3.25647">
        <ele>-124</ele>
        <time>2017-12-03T09:59:06Z</time>
      </trkpt>
      <trkpt lat="50.6257" lon="3.2566">
        <ele>-124</ele>
        <time>2017-12-03T09:59:10Z</time>
      </trkpt>
      <trkpt lat="50.6258" lon="3.2568">
        <ele>-124</ele>
        <time>2017-12-03T09:59:14Z</time>
      </trkpt>
      <trkpt lat="50.62584" lon="3.25704">
        <ele>-124</ele>
        <time>2017-12-03T09:59:18Z</time>
      </trkpt>
      <trkpt lat="50.62585" lon="3.2573">
        <ele>-125</ele>
        <time>2017-12-03T09:59:22Z</time>
      </trkpt>
      <trkpt lat="50.62585" lon="3.25754">
        <ele>-126</ele>
        <time>2017-12-03T09:59:26Z</time>
      </trkpt>
      <trkpt lat="50.62585" lon="3.25777">
        <ele>-126</ele>
        <time>2017-12-03T09:59:30Z</time>
      </trkpt>
      <trkpt lat="50.62589" lon="3.25798">
        <ele>-126</ele>
        <time>2017-12-03T09:59:34Z</time>
      </trkpt>
      <trkpt lat="50.62596" lon="3.25813">
        <ele>-126</ele>
        <time>2017-12-03T09:59:38Z</time>
      </trkpt>
      <trkpt lat="50.626" lon="3.25817">
        <ele>-126</ele>
        <time>2017-12-03T09:59:58Z</time>
      </trkpt>
      <trkpt lat="50.62608" lon="3.25822">
        <ele>-127</ele>
        <time>2017-12-03T10:00:02Z</time>
      </trkpt>
      <trkpt lat="50.62618" lon="3.25828">
        <ele>-127</ele>
        <time>2017-12-03T10:00:06Z</time>
      </trkpt>
      <trkpt lat="50.6263" lon="3.25832">
        <ele>-127</ele>
        <time>2017-12-03T10:00:10Z</time>
      </trkpt>
      <trkpt lat="50.62644" lon="3.25835">
        <ele>-126</ele>
        <time>2017-12-03T10:00:14Z</time>
      </trkpt>
      <trkpt lat="50.62658" lon="3.25838">
        <ele>-126</ele>
        <time>2017-12-03T10:00:18Z</time>
      </trkpt>
      <trkpt lat="50.62672" lon="3.25842">
        <ele>-126</ele>
        <time>2017-12-03T10:00:22Z</time>
      </trkpt>
      <trkpt lat="50.62685" lon="3.25846">
        <ele>-127</ele>
        <time>2017-12-03T10:00:26Z</time>
      </trkpt>
      <trkpt lat="50.62699" lon="3.25849">
        <ele>-127</ele>
        <time>2017-12-03T10:00:30Z</time>
      </trkpt>
      <trkpt lat="50.62714" lon="3.25853">
        <ele>-127</ele>
        <time>2017-12-03T10:00:34Z</time>
      </trkpt>
      <trkpt lat="50.62727" lon="3.25858">
        <ele>-127</ele>
        <time>2017-12-03T10:00:38Z</time>
      </trkpt>
      <trkpt lat="50.62737" lon="3.25861">
        <ele>-127</ele>
        <time>2017-12-03T10:00:42Z</time>
      </trkpt>
      <trkpt lat="50.62744" lon="3.25864">
        <ele>-127</ele>
        <time>2017-12-03T10:00:46Z</time>
      </trkpt>
      <trkpt lat="50.62752" lon="3.25866">
        <ele>-129</ele>
        <time>2017-12-03T10:00:50Z</time>
      </trkpt>
      <trkpt lat="50.62763" lon="3.2587">
        <ele>-127</ele>
        <time>2017-12-03T10:00:54Z</time>
      </trkpt>
      <trkpt lat="50.62776" lon="3.25869">
        <ele>-127</ele>
        <time>2017-12-03T10:00:58Z</time>
      </trkpt>
      <trkpt lat="50.62794" lon="3.25871">
        <ele>-127</ele>
        <time>2017-12-03T10:01:02Z</time>
      </trkpt>
      <trkpt lat="50.62814" lon="3.25876">
        <ele>-127</ele>
        <time>2017-12-03T10:01:06Z</time>
      </trkpt>
      <trkpt lat="50.62833" lon="3.25881">
        <ele>-126</ele>
        <time>2017-12-03T10:01:10Z</time>
      </trkpt>
      <trkpt lat="50.62853" lon="3.25884">
        <ele>-126</ele>
        <time>2017-12-03T10:01:14Z</time>
      </trkpt>
      <trkpt lat="50.62873" lon="3.25889">
        <ele>-125</ele>
        <time>2017-12-03T10:01:18Z</time>
      </trkpt>
      <trkpt lat="50.62896" lon="3.25892">
        <ele>-126</ele>
        <time>2017-12-03T10:01:22Z</time>
      </trkpt>
      <trkpt lat="50.6292" lon="3.25899">
        <ele>-126</ele>
        <time>2017-12-03T10:01:26Z</time>
      </trkpt>
      <trkpt lat="50.62944" lon="3.25906">
        <ele>-126</ele>
        <time>2017-12-03T10:01:30Z</time>
      </trkpt>
      <trkpt lat="50.62965" lon="3.25914">
        <ele>-126</ele>
        <time>2017-12-03T10:01:34Z</time>
      </trkpt>
      <trkpt lat="50.62985" lon="3.25926">
        <ele>-125</ele>
        <time>2017-12-03T10:01:38Z</time>
      </trkpt>
      <trkpt lat="50.63003" lon="3.25941">
        <ele>-126</ele>
        <time>2017-12-03T10:01:42Z</time>
      </trkpt>
      <trkpt lat="50.63023" lon="3.25953">
        <ele>-126</ele>
        <time>2017-12-03T10:01:46Z</time>
      </trkpt>
      <trkpt lat="50.63043" lon="3.25968">
        <ele>-126</ele>
        <time>2017-12-03T10:01:50Z</time>
      </trkpt>
      <trkpt lat="50.63064" lon="3.25982">
        <ele>-126</ele>
        <time>2017-12-03T10:01:54Z</time>
      </trkpt>
      <trkpt lat="50.63086" lon="3.25995">
        <ele>-127</ele>
        <time>2017-12-03T10:01:58Z</time>
      </trkpt>
      <trkpt lat="50.63105" lon="3.26008">
        <ele>-126</ele>
        <time>2017-12-03T10:02:02Z</time>
      </trkpt>
      <trkpt lat="50.63126" lon="3.26021">
        <ele>-127</ele>
        <time>2017-12-03T10:02:06Z</time>
      </trkpt>
      <trkpt lat="50.63146" lon="3.26034">
        <ele>-126</ele>
        <time>2017-12-03T10:02:10Z</time>
      </trkpt>
      <trkpt lat="50.63168" lon="3.26047">
        <ele>-127</ele>
        <time>2017-12-03T10:02:14Z</time>
      </trkpt>
      <trkpt lat="50.6319" lon="3.26063">
        <ele>-126</ele>
        <time>2017-12-03T10:02:18Z</time>
      </trkpt>
      <trkpt lat="50.63212" lon="3.26077">
        <ele>-127</ele>
        <time>2017-12-03T10:02:22Z</time>
      </trkpt>
      <trkpt lat="50.63234" lon="3.26093">
        <ele>-127</ele>
        <time>2017-12-03T10:02:26Z</time>
      </trkpt>
      <trkpt lat="50.63257" lon="3.26107">
        <ele>-128</ele>
        <time>2017-12-03T10:02:30Z</time>
      </trkpt>
      <trkpt lat="50.6328" lon="3.26121">
        <ele>-128</ele>
        <time>2017-12-03T10:02:34Z</time>
      </trkpt>
      <trkpt lat="50.63304" lon="3.26136">
        <ele>-127</ele>
        <time>2017-12-03T10:02:38Z</time>
      </trkpt>
      <trkpt lat="50.63328" lon="3.26157">
        <ele>-127</ele>
        <time>2017-12-03T10:02:42Z</time>
      </trkpt>
      <trkpt lat="50.63349" lon="3.26176">
        <ele>-127</ele>
        <time>2017-12-03T10:02:46Z</time>
      </trkpt>
      <trkpt lat="50.6337" lon="3.26195">
        <ele>-127</ele>
        <time>2017-12-03T10:02:50Z</time>
      </trkpt>
      <trkpt lat="50.63392" lon="3.26215">
        <ele>-127</ele>
        <time>2017-12-03T10:02:54Z</time>
      </trkpt>
      <trkpt lat="50.63412" lon="3.26236">
        <ele>-127</ele>
        <time>2017-12-03T10:02:58Z</time>
      </trkpt>
      <trkpt lat="50.63432" lon="3.26258">
        <ele>-126</ele>
        <time>2017-12-03T10:03:02Z</time>
      </trkpt>
      <trkpt lat="50.63451" lon="3.2628">
        <ele>-127</ele>
        <time>2017-12-03T10:03:06Z</time>
      </trkpt>
      <trkpt lat="50.6347" lon="3.263">
        <ele>-127</ele>
        <time>2017-12-03T10:03:10Z</time>
      </trkpt>
      <trkpt lat="50.63488" lon="3.26313">
        <ele>-127</ele>
        <time>2017-12-03T10:03:14Z</time>
      </trkpt>
      <trkpt lat="50.63507" lon="3.26313">
        <ele>-126</ele>
        <time>2017-12-03T10:03:18Z</time>
      </trkpt>
      <trkpt lat="50.63526" lon="3.26317">
        <ele>-126</ele>
        <time>2017-12-03T10:03:22Z</time>
      </trkpt>
      <trkpt lat="50.63545" lon="3.26326">
        <ele>-126</ele>
        <time>2017-12-03T10:03:26Z</time>
      </trkpt>
      <trkpt lat="50.63564" lon="3.26336">
        <ele>-126</ele>
        <time>2017-12-03T10:03:30Z</time>
      </trkpt>
      <trkpt lat="50.63583" lon="3.26345">
        <ele>-127</ele>
        <time>2017-12-03T10:03:34Z</time>
      </trkpt>
      <trkpt lat="50.63604" lon="3.26354">
        <ele>-127</ele>
        <time>2017-12-03T10:03:38Z</time>
      </trkpt>
      <trkpt lat="50.63625" lon="3.26362">
        <ele>-127</ele>
        <time>2017-12-03T10:03:42Z</time>
      </trkpt>
      <trkpt lat="50.63647" lon="3.2637">
        <ele>-127</ele>
        <time>2017-12-03T10:03:46Z</time>
      </trkpt>
      <trkpt lat="50.6367" lon="3.26379">
        <ele>-127</ele>
        <time>2017-12-03T10:03:50Z</time>
      </trkpt>
      <trkpt lat="50.63693" lon="3.2639">
        <ele>-127</ele>
        <time>2017-12-03T10:03:54Z</time>
      </trkpt>
      <trkpt lat="50.63714" lon="3.26401">
        <ele>-126</ele>
        <time>2017-12-03T10:03:58Z</time>
      </trkpt>
      <trkpt lat="50.63736" lon="3.26413">
        <ele>-127</ele>
        <time>2017-12-03T10:04:02Z</time>
      </trkpt>
      <trkpt lat="50.63758" lon="3.26427">
        <ele>-126</ele>
        <time>2017-12-03T10:04:06Z</time>
      </trkpt>
      <trkpt lat="50.63778" lon="3.26447">
        <ele>-126</ele>
        <time>2017-12-03T10:04:10Z</time>
      </trkpt>
      <trkpt lat="50.63798" lon="3.26467">
        <ele>-126</ele>
        <time>2017-12-03T10:04:14Z</time>
      </trkpt>
      <trkpt lat="50.63817" lon="3.26488">
        <ele>-125</ele>
        <time>2017-12-03T10:04:18Z</time>
      </trkpt>
      <trkpt lat="50.63837" lon="3.26509">
        <ele>-125</ele>
        <time>2017-12-03T10:04:22Z</time>
      </trkpt>
      <trkpt lat="50.63855" lon="3.26525">
        <ele>-125</ele>
        <time>2017-12-03T10:04:26Z</time>
      </trkpt>
      <trkpt lat="50.63872" lon="3.26542">
        <ele>-125</ele>
        <time>2017-12-03T10:04:30Z</time>
      </trkpt>
      <trkpt lat="50.63891" lon="3.26557">
        <ele>-124</ele>
        <time>2017-12-03T10:04:34Z</time>
      </trkpt>
      <trkpt lat="50.63908" lon="3.26577">
        <ele>-124</ele>
        <time>2017-12-03T10:04:38Z</time>
      </trkpt>
      <trkpt lat="50.63923" lon="3.26602">
        <ele>-123</ele>
        <time>2017-12-03T10:04:42Z</time>
      </trkpt>
      <trkpt lat="50.63936" lon="3.26629">
        <ele>-124</ele>
        <time>2017-12-03T10:04:46Z</time>
      </trkpt>
      <trkpt lat="50.63948" lon="3.26658">
        <ele>-124</ele>
        <time>2017-12-03T10:04:50Z</time>
      </trkpt>
      <trkpt lat="50.63961" lon="3.26685">
        <ele>-123</ele>
        <time>2017-12-03T10:04:54Z</time>
      </trkpt>
      <trkpt lat="50.63972" lon="3.26713">
        <ele>-123</ele>
        <time>2017-12-03T10:04:58Z</time>
      </trkpt>
      <trkpt lat="50.63983" lon="3.26742">
        <ele>-123</ele>
        <time>2017-12-03T10:05:02Z</time>
      </trkpt>
      <trkpt lat="50.63995" lon="3.26771">
        <ele>-123</ele>
        <time>2017-12-03T10:05:06Z</time>
      </trkpt>
      <trkpt lat="50.64008" lon="3.26799">
        <ele>-123</ele>
        <time>2017-12-03T10:05:10Z</time>
      </trkpt>
      <trkpt lat="50.64023" lon="3.26825">
        <ele>-123</ele>
        <time>2017-12-03T10:05:14Z</time>
      </trkpt>
      <trkpt lat="50.64039" lon="3.26849">
        <ele>-123</ele>
        <time>2017-12-03T10:05:18Z</time>
      </trkpt>
      <trkpt lat="50.64055" lon="3.26872">
        <ele>-123</ele>
        <time>2017-12-03T10:05:22Z</time>
      </trkpt>
      <trkpt lat="50.6407" lon="3.26898">
        <ele>-123</ele>
        <time>2017-12-03T10:05:26Z</time>
      </trkpt>
      <trkpt lat="50.64084" lon="3.26925">
        <ele>-122</ele>
        <time>2017-12-03T10:05:30Z</time>
      </trkpt>
      <trkpt lat="50.64097" lon="3.26954">
        <ele>-122</ele>
        <time>2017-12-03T10:05:34Z</time>
      </trkpt>
      <trkpt lat="50.64108" lon="3.26985">
        <ele>-122</ele>
        <time>2017-12-03T10:05:38Z</time>
      </trkpt>
      <trkpt lat="50.64119" lon="3.27017">
        <ele>-122</ele>
        <time>2017-12-03T10:05:42Z</time>
      </trkpt>
      <trkpt lat="50.64129" lon="3.27048">
        <ele>-122</ele>
        <time>2017-12-03T10:05:46Z</time>
      </trkpt>
      <trkpt lat="50.64141" lon="3.27079">
        <ele>-122</ele>
        <time>2017-12-03T10:05:50Z</time>
      </trkpt>
      <trkpt lat="50.64155" lon="3.27108">
        <ele>-123</ele>
        <time>2017-12-03T10:05:54Z</time>
      </trkpt>
      <trkpt lat="50.64171" lon="3.27134">
        <ele>-123</ele>
        <time>2017-12-03T10:05:58Z</time>
      </trkpt>
      <trkpt lat="50.64189" lon="3.27157">
        <ele>-123</ele>
        <time>2017-12-03T10:06:02Z</time>
      </trkpt>
      <trkpt lat="50.64207" lon="3.27179">
        <ele>-123</ele>
        <time>2017-12-03T10:06:06Z</time>
      </trkpt>
      <trkpt lat="50.64226" lon="3.27198">
        <ele>-123</ele>
        <time>2017-12-03T10:06:10Z</time>
      </trkpt>
      <trkpt lat="50.64246" lon="3.27211">
        <ele>-123</ele>
        <time>2017-12-03T10:06:14Z</time>
      </trkpt>
      <trkpt lat="50.64268" lon="3.27224">
        <ele>-124</ele>
        <time>2017-12-03T10:06:18Z</time>
      </trkpt>
      <trkpt lat="50.64287" lon="3.27243">
        <ele>-124</ele>
        <time>2017-12-03T10:06:22Z</time>
      </trkpt>
      <trkpt lat="50.64307" lon="3.2726">
        <ele>-125</ele>
        <time>2017-12-03T10:06:26Z</time>
      </trkpt>
      <trkpt lat="50.64327" lon="3.27278">
        <ele>-125</ele>
        <time>2017-12-03T10:06:30Z</time>
      </trkpt>
      <trkpt lat="50.64345" lon="3.27295">
        <ele>-125</ele>
        <time>2017-12-03T10:06:34Z</time>
      </trkpt>
      <trkpt lat="50.64362" lon="3.27314">
        <ele>-125</ele>
        <time>2017-12-03T10:06:38Z</time>
      </trkpt>
      <trkpt lat="50.64368" lon="3.27343">
        <ele>-125</ele>
        <time>2017-12-03T10:06:42Z</time>
      </trkpt>
      <trkpt lat="50.64372" lon="3.27376">
        <ele>-125</ele>
        <time>2017-12-03T10:06:46Z</time>
      </trkpt>
      <trkpt lat="50.64377" lon="3.27409">
        <ele>-125</ele>
        <time>2017-12-03T10:06:50Z</time>
      </trkpt>
      <trkpt lat="50.64383" lon="3.27443">
        <ele>-125</ele>
        <time>2017-12-03T10:06:54Z</time>
      </trkpt>
      <trkpt lat="50.64387" lon="3.27477">
        <ele>-125</ele>
        <time>2017-12-03T10:06:58Z</time>
      </trkpt>
      <trkpt lat="50.64391" lon="3.27511">
        <ele>-124</ele>
        <time>2017-12-03T10:07:02Z</time>
      </trkpt>
      <trkpt lat="50.64396" lon="3.27546">
        <ele>-125</ele>
        <time>2017-12-03T10:07:06Z</time>
      </trkpt>
      <trkpt lat="50.644" lon="3.27581">
        <ele>-125</ele>
        <time>2017-12-03T10:07:10Z</time>
      </trkpt>
      <trkpt lat="50.64402" lon="3.27618">
        <ele>-125</ele>
        <time>2017-12-03T10:07:14Z</time>
      </trkpt>
      <trkpt lat="50.64403" lon="3.27656">
        <ele>-125</ele>
        <time>2017-12-03T10:07:18Z</time>
      </trkpt>
      <trkpt lat="50.64405" lon="3.27694">
        <ele>-125</ele>
        <time>2017-12-03T10:07:22Z</time>
      </trkpt>
      <trkpt lat="50.64406" lon="3.27732">
        <ele>-125</ele>
        <time>2017-12-03T10:07:26Z</time>
      </trkpt>
      <trkpt lat="50.64408" lon="3.2777">
        <ele>-125</ele>
        <time>2017-12-03T10:07:30Z</time>
      </trkpt>
      <trkpt lat="50.64411" lon="3.27809">
        <ele>-125</ele>
        <time>2017-12-03T10:07:34Z</time>
      </trkpt>
      <trkpt lat="50.64413" lon="3.27847">
        <ele>-125</ele>
        <time>2017-12-03T10:07:38Z</time>
      </trkpt>
      <trkpt lat="50.64416" lon="3.27886">
        <ele>-125</ele>
        <time>2017-12-03T10:07:42Z</time>
      </trkpt>
      <trkpt lat="50.6442" lon="3.27924">
        <ele>-126</ele>
        <time>2017-12-03T10:07:46Z</time>
      </trkpt>
      <trkpt lat="50.64423" lon="3.27962">
        <ele>-126</ele>
        <time>2017-12-03T10:07:50Z</time>
      </trkpt>
      <trkpt lat="50.64426" lon="3.28001">
        <ele>-126</ele>
        <time>2017-12-03T10:07:54Z</time>
      </trkpt>
      <trkpt lat="50.64431" lon="3.2804">
        <ele>-127</ele>
        <time>2017-12-03T10:07:58Z</time>
      </trkpt>
      <trkpt lat="50.64437" lon="3.28079">
        <ele>-127</ele>
        <time>2017-12-03T10:08:02Z</time>
      </trkpt>
      <trkpt lat="50.64443" lon="3.28117">
        <ele>-127</ele>
        <time>2017-12-03T10:08:06Z</time>
      </trkpt>
      <trkpt lat="50.64451" lon="3.28154">
        <ele>-127</ele>
        <time>2017-12-03T10:08:10Z</time>
      </trkpt>
      <trkpt lat="50.64459" lon="3.2819">
        <ele>-127</ele>
        <time>2017-12-03T10:08:14Z</time>
      </trkpt>
      <trkpt lat="50.64467" lon="3.28226">
        <ele>-127</ele>
        <time>2017-12-03T10:08:18Z</time>
      </trkpt>
      <trkpt lat="50.64475" lon="3.28262">
        <ele>-127</ele>
        <time>2017-12-03T10:08:22Z</time>
      </trkpt>
      <trkpt lat="50.64479" lon="3.28298">
        <ele>-127</ele>
        <time>2017-12-03T10:08:26Z</time>
      </trkpt>
      <trkpt lat="50.64473" lon="3.28331">
        <ele>-127</ele>
        <time>2017-12-03T10:08:30Z</time>
      </trkpt>
      <trkpt lat="50.64465" lon="3.28368">
        <ele>-128</ele>
        <time>2017-12-03T10:08:34Z</time>
      </trkpt>
      <trkpt lat="50.64458" lon="3.28404">
        <ele>-128</ele>
        <time>2017-12-03T10:08:38Z</time>
      </trkpt>
      <trkpt lat="50.64451" lon="3.2844">
        <ele>-128</ele>
        <time>2017-12-03T10:08:42Z</time>
      </trkpt>
      <trkpt lat="50.64437" lon="3.28472">
        <ele>-129</ele>
        <time>2017-12-03T10:08:46Z</time>
      </trkpt>
      <trkpt lat="50.6442" lon="3.285">
        <ele>-129</ele>
        <time>2017-12-03T10:08:50Z</time>
      </trkpt>
      <trkpt lat="50.64407" lon="3.28531">
        <ele>-130</ele>
        <time>2017-12-03T10:08:54Z</time>
      </trkpt>
      <trkpt lat="50.64399" lon="3.28566">
        <ele>-130</ele>
        <time>2017-12-03T10:08:58Z</time>
      </trkpt>
      <trkpt lat="50.64396" lon="3.28604">
        <ele>-130</ele>
        <time>2017-12-03T10:09:02Z</time>
      </trkpt>
      <trkpt lat="50.64394" lon="3.28641">
        <ele>-130</ele>
        <time>2017-12-03T10:09:06Z</time>
      </trkpt>
      <trkpt lat="50.64392" lon="3.28679">
        <ele>-130</ele>
        <time>2017-12-03T10:09:10Z</time>
      </trkpt>
      <trkpt lat="50.64391" lon="3.28716">
        <ele>-130</ele>
        <time>2017-12-03T10:09:14Z</time>
      </trkpt>
      <trkpt lat="50.64388" lon="3.28752">
        <ele>-130</ele>
        <time>2017-12-03T10:09:18Z</time>
      </trkpt>
      <trkpt lat="50.64379" lon="3.28785">
        <ele>-130</ele>
        <time>2017-12-03T10:09:22Z</time>
      </trkpt>
      <trkpt lat="50.64365" lon="3.28812">
        <ele>-130</ele>
        <time>2017-12-03T10:09:26Z</time>
      </trkpt>
      <trkpt lat="50.6435" lon="3.28839">
        <ele>-130</ele>
        <time>2017-12-03T10:09:30Z</time>
      </trkpt>
      <trkpt lat="50.64334" lon="3.28866">
        <ele>-130</ele>
        <time>2017-12-03T10:09:34Z</time>
      </trkpt>
      <trkpt lat="50.64319" lon="3.28893">
        <ele>-130</ele>
        <time>2017-12-03T10:09:38Z</time>
      </trkpt>
      <trkpt lat="50.64304" lon="3.28918">
        <ele>-130</ele>
        <time>2017-12-03T10:09:42Z</time>
      </trkpt>
      <trkpt lat="50.64289" lon="3.28943">
        <ele>-130</ele>
        <time>2017-12-03T10:09:46Z</time>
      </trkpt>
      <trkpt lat="50.64274" lon="3.28969">
        <ele>-131</ele>
        <time>2017-12-03T10:09:50Z</time>
      </trkpt>
      <trkpt lat="50.64259" lon="3.28997">
        <ele>-130</ele>
        <time>2017-12-03T10:09:54Z</time>
      </trkpt>
      <trkpt lat="50.64244" lon="3.29023">
        <ele>-131</ele>
        <time>2017-12-03T10:09:58Z</time>
      </trkpt>
      <trkpt lat="50.64228" lon="3.29049">
        <ele>-131</ele>
        <time>2017-12-03T10:10:02Z</time>
      </trkpt>
      <trkpt lat="50.64214" lon="3.29074">
        <ele>-130</ele>
        <time>2017-12-03T10:10:06Z</time>
      </trkpt>
      <trkpt lat="50.64199" lon="3.291">
        <ele>-130</ele>
        <time>2017-12-03T10:10:10Z</time>
      </trkpt>
      <trkpt lat="50.64183" lon="3.29128">
        <ele>-131</ele>
        <time>2017-12-03T10:10:14Z</time>
      </trkpt>
      <trkpt lat="50.64167" lon="3.29155">
        <ele>-131</ele>
        <time>2017-12-03T10:10:18Z</time>
      </trkpt>
      <trkpt lat="50.64151" lon="3.29183">
        <ele>-131</ele>
        <time>2017-12-03T10:10:22Z</time>
      </trkpt>
      <trkpt lat="50.64132" lon="3.29217">
        <ele>-131</ele>
        <time>2017-12-03T10:10:26Z</time>
      </trkpt>
      <trkpt lat="50.64113" lon="3.2925">
        <ele>-132</ele>
        <time>2017-12-03T10:10:30Z</time>
      </trkpt>
      <trkpt lat="50.64093" lon="3.29283">
        <ele>-132</ele>
        <time>2017-12-03T10:10:34Z</time>
      </trkpt>
      <trkpt lat="50.64074" lon="3.29318">
        <ele>-132</ele>
        <time>2017-12-03T10:10:38Z</time>
      </trkpt>
      <trkpt lat="50.64054" lon="3.29352">
        <ele>-132</ele>
        <time>2017-12-03T10:10:42Z</time>
      </trkpt>
      <trkpt lat="50.64035" lon="3.29386">
        <ele>-133</ele>
        <time>2017-12-03T10:10:46Z</time>
      </trkpt>
      <trkpt lat="50.64016" lon="3.29419">
        <ele>-133</ele>
        <time>2017-12-03T10:10:50Z</time>
      </trkpt>
      <trkpt lat="50.63996" lon="3.29452">
        <ele>-134</ele>
        <time>2017-12-03T10:10:54Z</time>
      </trkpt>
      <trkpt lat="50.63977" lon="3.29486">
        <ele>-134</ele>
        <time>2017-12-03T10:10:58Z</time>
      </trkpt>
      <trkpt lat="50.63957" lon="3.29518">
        <ele>-135</ele>
        <time>2017-12-03T10:11:02Z</time>
      </trkpt>
      <trkpt lat="50.63938" lon="3.29552">
        <ele>-135</ele>
        <time>2017-12-03T10:11:06Z</time>
      </trkpt>
      <trkpt lat="50.6392" lon="3.29585">
        <ele>-135</ele>
        <time>2017-12-03T10:11:10Z</time>
      </trkpt>
      <trkpt lat="50.63901" lon="3.29617">
        <ele>-135</ele>
        <time>2017-12-03T10:11:14Z</time>
      </trkpt>
      <trkpt lat="50.63882" lon="3.2965">
        <ele>-135</ele>
        <time>2017-12-03T10:11:18Z</time>
      </trkpt>
      <trkpt lat="50.63863" lon="3.29683">
        <ele>-135</ele>
        <time>2017-12-03T10:11:22Z</time>
      </trkpt>
      <trkpt lat="50.63844" lon="3.29715">
        <ele>-135</ele>
        <time>2017-12-03T10:11:26Z</time>
      </trkpt>
      <trkpt lat="50.63826" lon="3.29746">
        <ele>-135</ele>
        <time>2017-12-03T10:11:30Z</time>
      </trkpt>
      <trkpt lat="50.63808" lon="3.29778">
        <ele>-135</ele>
        <time>2017-12-03T10:11:34Z</time>
      </trkpt>
      <trkpt lat="50.63791" lon="3.29808">
        <ele>-135</ele>
        <time>2017-12-03T10:11:38Z</time>
      </trkpt>
      <trkpt lat="50.63777" lon="3.29832">
        <ele>-135</ele>
        <time>2017-12-03T10:11:42Z</time>
      </trkpt>
      <trkpt lat="50.6377" lon="3.29846">
        <ele>-134</ele>
        <time>2017-12-03T10:11:46Z</time>
      </trkpt>
      <trkpt lat="50.63775" lon="3.29846">
        <ele>-135</ele>
        <time>2017-12-03T10:11:50Z</time>
      </trkpt>
      <trkpt lat="50.63784" lon="3.29831">
        <ele>-135</ele>
        <time>2017-12-03T10:11:54Z</time>
      </trkpt>
      <trkpt lat="50.63794" lon="3.29833">
        <ele>-135</ele>
        <time>2017-12-03T10:11:58Z</time>
      </trkpt>
      <trkpt lat="50.638" lon="3.29855">
        <ele>-135</ele>
        <time>2017-12-03T10:12:02Z</time>
      </trkpt>
      <trkpt lat="50.63805" lon="3.29877">
        <ele>-135</ele>
        <time>2017-12-03T10:12:06Z</time>
      </trkpt>
      <trkpt lat="50.63812" lon="3.29901">
        <ele>-135</ele>
        <time>2017-12-03T10:12:10Z</time>
      </trkpt>
      <trkpt lat="50.63818" lon="3.29925">
        <ele>-135</ele>
        <time>2017-12-03T10:12:14Z</time>
      </trkpt>
      <trkpt lat="50.63825" lon="3.2995">
        <ele>-135</ele>
        <time>2017-12-03T10:12:18Z</time>
      </trkpt>
      <trkpt lat="50.63831" lon="3.29975">
        <ele>-136</ele>
        <time>2017-12-03T10:12:22Z</time>
      </trkpt>
      <trkpt lat="50.63838" lon="3.29999">
        <ele>-135</ele>
        <time>2017-12-03T10:12:26Z</time>
      </trkpt>
      <trkpt lat="50.63843" lon="3.30023">
        <ele>-135</ele>
        <time>2017-12-03T10:12:30Z</time>
      </trkpt>
      <trkpt lat="50.63849" lon="3.30045">
        <ele>-135</ele>
        <time>2017-12-03T10:12:34Z</time>
      </trkpt>
      <trkpt lat="50.6386" lon="3.30066">
        <ele>-136</ele>
        <time>2017-12-03T10:12:38Z</time>
      </trkpt>
      <trkpt lat="50.63872" lon="3.30086">
        <ele>-136</ele>
        <time>2017-12-03T10:12:42Z</time>
      </trkpt>
      <trkpt lat="50.63885" lon="3.30108">
        <ele>-136</ele>
        <time>2017-12-03T10:12:46Z</time>
      </trkpt>
      <trkpt lat="50.63899" lon="3.30131">
        <ele>-136</ele>
        <time>2017-12-03T10:12:50Z</time>
      </trkpt>
      <trkpt lat="50.63914" lon="3.30155">
        <ele>-136</ele>
        <time>2017-12-03T10:12:54Z</time>
      </trkpt>
      <trkpt lat="50.63929" lon="3.3018">
        <ele>-136</ele>
        <time>2017-12-03T10:12:58Z</time>
      </trkpt>
      <trkpt lat="50.63944" lon="3.30203">
        <ele>-136</ele>
        <time>2017-12-03T10:13:02Z</time>
      </trkpt>
      <trkpt lat="50.63958" lon="3.30227">
        <ele>-136</ele>
        <time>2017-12-03T10:13:06Z</time>
      </trkpt>
      <trkpt lat="50.63972" lon="3.30253">
        <ele>-137</ele>
        <time>2017-12-03T10:13:10Z</time>
      </trkpt>
      <trkpt lat="50.63982" lon="3.3028">
        <ele>-137</ele>
        <time>2017-12-03T10:13:14Z</time>
      </trkpt>
      <trkpt lat="50.63991" lon="3.30308">
        <ele>-136</ele>
        <time>2017-12-03T10:13:18Z</time>
      </trkpt>
      <trkpt lat="50.64" lon="3.30326">
        <ele>-136</ele>
        <time>2017-12-03T10:13:22Z</time>
      </trkpt>
      <trkpt lat="50.64016" lon="3.30341">
        <ele>-136</ele>
        <time>2017-12-03T10:13:26Z</time>
      </trkpt>
      <trkpt lat="50.64024" lon="3.30368">
        <ele>-136</ele>
        <time>2017-12-03T10:13:30Z</time>
      </trkpt>
      <trkpt lat="50.64034" lon="3.3037">
        <ele>-136</ele>
        <time>2017-12-03T10:13:34Z</time>
      </trkpt>
      <trkpt lat="50.64046" lon="3.30358">
        <ele>-136</ele>
        <time>2017-12-03T10:13:38Z</time>
      </trkpt>
      <trkpt lat="50.64063" lon="3.30344">
        <ele>-136</ele>
        <time>2017-12-03T10:13:42Z</time>
      </trkpt>
      <trkpt lat="50.64081" lon="3.30327">
        <ele>-136</ele>
        <time>2017-12-03T10:13:46Z</time>
      </trkpt>
      <trkpt lat="50.64099" lon="3.30311">
        <ele>-137</ele>
        <time>2017-12-03T10:13:50Z</time>
      </trkpt>
      <trkpt lat="50.64117" lon="3.30297">
        <ele>-136</ele>
        <time>2017-12-03T10:13:54Z</time>
      </trkpt>
      <trkpt lat="50.64136" lon="3.30281">
        <ele>-136</ele>
        <time>2017-12-03T10:13:58Z</time>
      </trkpt>
      <trkpt lat="50.64157" lon="3.30264">
        <ele>-136</ele>
        <time>2017-12-03T10:14:02Z</time>
      </trkpt>
      <trkpt lat="50.64179" lon="3.30247">
        <ele>-137</ele>
        <time>2017-12-03T10:14:06Z</time>
      </trkpt>
      <trkpt lat="50.64199" lon="3.30227">
        <ele>-136</ele>
        <time>2017-12-03T10:14:10Z</time>
      </trkpt>
      <trkpt lat="50.64221" lon="3.30208">
        <ele>-137</ele>
        <time>2017-12-03T10:14:14Z</time>
      </trkpt>
      <trkpt lat="50.64242" lon="3.30189">
        <ele>-137</ele>
        <time>2017-12-03T10:14:18Z</time>
      </trkpt>
      <trkpt lat="50.64261" lon="3.30172">
        <ele>-136</ele>
        <time>2017-12-03T10:14:22Z</time>
      </trkpt>
      <trkpt lat="50.64282" lon="3.30155">
        <ele>-136</ele>
        <time>2017-12-03T10:14:26Z</time>
      </trkpt>
      <trkpt lat="50.64304" lon="3.30136">
        <ele>-136</ele>
        <time>2017-12-03T10:14:30Z</time>
      </trkpt>
      <trkpt lat="50.64323" lon="3.30116">
        <ele>-136</ele>
        <time>2017-12-03T10:14:34Z</time>
      </trkpt>
      <trkpt lat="50.6434" lon="3.30099">
        <ele>-135</ele>
        <time>2017-12-03T10:14:38Z</time>
      </trkpt>
      <trkpt lat="50.64359" lon="3.30081">
        <ele>-135</ele>
        <time>2017-12-03T10:14:42Z</time>
      </trkpt>
      <trkpt lat="50.64377" lon="3.30062">
        <ele>-135</ele>
        <time>2017-12-03T10:14:46Z</time>
      </trkpt>
      <trkpt lat="50.64397" lon="3.3004">
        <ele>-134</ele>
        <time>2017-12-03T10:14:50Z</time>
      </trkpt>
      <trkpt lat="50.64418" lon="3.30018">
        <ele>-134</ele>
        <time>2017-12-03T10:14:54Z</time>
      </trkpt>
      <trkpt lat="50.64435" lon="3.30001">
        <ele>-134</ele>
        <time>2017-12-03T10:14:58Z</time>
      </trkpt>
      <trkpt lat="50.64453" lon="3.29984">
        <ele>-133</ele>
        <time>2017-12-03T10:15:02Z</time>
      </trkpt>
      <trkpt lat="50.64474" lon="3.29965">
        <ele>-134</ele>
        <time>2017-12-03T10:15:06Z</time>
      </trkpt>
      <trkpt lat="50.6449" lon="3.29949">
        <ele>-134</ele>
        <time>2017-12-03T10:15:10Z</time>
      </trkpt>
      <trkpt lat="50.64507" lon="3.29933">
        <ele>-134</ele>
        <time>2017-12-03T10:15:14Z</time>
      </trkpt>
      <trkpt lat="50.6452" lon="3.29922">
        <ele>-134</ele>
        <time>2017-12-03T10:15:18Z</time>
      </trkpt>
      <trkpt lat="50.64535" lon="3.29926">
        <ele>-134</ele>
        <time>2017-12-03T10:15:22Z</time>
      </trkpt>
      <trkpt lat="50.64546" lon="3.29952">
        <ele>-134</ele>
        <time>2017-12-03T10:15:26Z</time>
      </trkpt>
      <trkpt lat="50.64557" lon="3.2998">
        <ele>-134</ele>
        <time>2017-12-03T10:15:30Z</time>
      </trkpt>
      <trkpt lat="50.64569" lon="3.30009">
        <ele>-134</ele>
        <time>2017-12-03T10:15:34Z</time>
      </trkpt>
      <trkpt lat="50.64581" lon="3.3004">
        <ele>-134</ele>
        <time>2017-12-03T10:15:38Z</time>
      </trkpt>
      <trkpt lat="50.64593" lon="3.3007">
        <ele>-134</ele>
        <time>2017-12-03T10:15:42Z</time>
      </trkpt>
      <trkpt lat="50.64605" lon="3.301">
        <ele>-134</ele>
        <time>2017-12-03T10:15:46Z</time>
      </trkpt>
      <trkpt lat="50.64618" lon="3.3013">
        <ele>-135</ele>
        <time>2017-12-03T10:15:50Z</time>
      </trkpt>
      <trkpt lat="50.6463" lon="3.3016">
        <ele>-134</ele>
        <time>2017-12-03T10:15:54Z</time>
      </trkpt>
      <trkpt lat="50.64643" lon="3.30191">
        <ele>-135</ele>
        <time>2017-12-03T10:15:58Z</time>
      </trkpt>
      <trkpt lat="50.64655" lon="3.30222">
        <ele>-134</ele>
        <time>2017-12-03T10:16:02Z</time>
      </trkpt>
      <trkpt lat="50.64666" lon="3.30255">
        <ele>-135</ele>
        <time>2017-12-03T10:16:06Z</time>
      </trkpt>
      <trkpt lat="50.64676" lon="3.30287">
        <ele>-135</ele>
        <time>2017-12-03T10:16:10Z</time>
      </trkpt>
      <trkpt lat="50.64686" lon="3.3032">
        <ele>-135</ele>
        <time>2017-12-03T10:16:14Z</time>
      </trkpt>
      <trkpt lat="50.64694" lon="3.30354">
        <ele>-135</ele>
        <time>2017-12-03T10:16:18Z</time>
      </trkpt>
      <trkpt lat="50.647" lon="3.30389">
        <ele>-135</ele>
        <time>2017-12-03T10:16:22Z</time>
      </trkpt>
      <trkpt lat="50.64706" lon="3.30425">
        <ele>-135</ele>
        <time>2017-12-03T10:16:26Z</time>
      </trkpt>
      <trkpt lat="50.64711" lon="3.30459">
        <ele>-135</ele>
        <time>2017-12-03T10:16:30Z</time>
      </trkpt>
      <trkpt lat="50.64715" lon="3.30495">
        <ele>-136</ele>
        <time>2017-12-03T10:16:34Z</time>
      </trkpt>
      <trkpt lat="50.6472" lon="3.3053">
        <ele>-136</ele>
        <time>2017-12-03T10:16:38Z</time>
      </trkpt>
      <trkpt lat="50.64725" lon="3.30565">
        <ele>-136</ele>
        <time>2017-12-03T10:16:42Z</time>
      </trkpt>
      <trkpt lat="50.6473" lon="3.30597">
        <ele>-136</ele>
        <time>2017-12-03T10:16:46Z</time>
      </trkpt>
      <trkpt lat="50.64734" lon="3.30631">
        <ele>-136</ele>
        <time>2017-12-03T10:16:50Z</time>
      </trkpt>
      <trkpt lat="50.64738" lon="3.30667">
        <ele>-136</ele>
        <time>2017-12-03T10:16:54Z</time>
      </trkpt>
      <trkpt lat="50.64743" lon="3.30703">
        <ele>-137</ele>
        <time>2017-12-03T10:16:58Z</time>
      </trkpt>
      <trkpt lat="50.64748" lon="3.30737">
        <ele>-137</ele>
        <time>2017-12-03T10:17:02Z</time>
      </trkpt>
      <trkpt lat="50.64753" lon="3.30766">
        <ele>-137</ele>
        <time>2017-12-03T10:17:06Z</time>
      </trkpt>
      <trkpt lat="50.64761" lon="3.30791">
        <ele>-137</ele>
        <time>2017-12-03T10:17:10Z</time>
      </trkpt>
      <trkpt lat="50.64769" lon="3.30818">
        <ele>-136</ele>
        <time>2017-12-03T10:17:14Z</time>
      </trkpt>
      <trkpt lat="50.6477" lon="3.30854">
        <ele>-136</ele>
        <time>2017-12-03T10:17:18Z</time>
      </trkpt>
      <trkpt lat="50.6477" lon="3.3089">
        <ele>-136</ele>
        <time>2017-12-03T10:17:22Z</time>
      </trkpt>
      <trkpt lat="50.64773" lon="3.30926">
        <ele>-136</ele>
        <time>2017-12-03T10:17:26Z</time>
      </trkpt>
      <trkpt lat="50.64776" lon="3.30962">
        <ele>-136</ele>
        <time>2017-12-03T10:17:30Z</time>
      </trkpt>
      <trkpt lat="50.64779" lon="3.30997">
        <ele>-136</ele>
        <time>2017-12-03T10:17:34Z</time>
      </trkpt>
      <trkpt lat="50.64783" lon="3.3103">
        <ele>-136</ele>
        <time>2017-12-03T10:17:38Z</time>
      </trkpt>
      <trkpt lat="50.64788" lon="3.31063">
        <ele>-136</ele>
        <time>2017-12-03T10:17:42Z</time>
      </trkpt>
      <trkpt lat="50.64792" lon="3.31095">
        <ele>-136</ele>
        <time>2017-12-03T10:17:46Z</time>
      </trkpt>
      <trkpt lat="50.64797" lon="3.31129">
        <ele>-136</ele>
        <time>2017-12-03T10:17:50Z</time>
      </trkpt>
      <trkpt lat="50.64801" lon="3.31165">
        <ele>-136</ele>
        <time>2017-12-03T10:17:54Z</time>
      </trkpt>
      <trkpt lat="50.64806" lon="3.31202">
        <ele>-135</ele>
        <time>2017-12-03T10:17:58Z</time>
      </trkpt>
      <trkpt lat="50.6481" lon="3.31239">
        <ele>-135</ele>
        <time>2017-12-03T10:18:02Z</time>
      </trkpt>
      <trkpt lat="50.64815" lon="3.31276">
        <ele>-135</ele>
        <time>2017-12-03T10:18:06Z</time>
      </trkpt>
      <trkpt lat="50.6482" lon="3.31314">
        <ele>-135</ele>
        <time>2017-12-03T10:18:10Z</time>
      </trkpt>
      <trkpt lat="50.64825" lon="3.31351">
        <ele>-135</ele>
        <time>2017-12-03T10:18:14Z</time>
      </trkpt>
      <trkpt lat="50.6483" lon="3.31389">
        <ele>-135</ele>
        <time>2017-12-03T10:18:18Z</time>
      </trkpt>
      <trkpt lat="50.64835" lon="3.31428">
        <ele>-135</ele>
        <time>2017-12-03T10:18:22Z</time>
      </trkpt>
      <trkpt lat="50.6484" lon="3.31467">
        <ele>-135</ele>
        <time>2017-12-03T10:18:26Z</time>
      </trkpt>
      <trkpt lat="50.64846" lon="3.31507">
        <ele>-136</ele>
        <time>2017-12-03T10:18:30Z</time>
      </trkpt>
      <trkpt lat="50.64851" lon="3.31546">
        <ele>-136</ele>
        <time>2017-12-03T10:18:34Z</time>
      </trkpt>
      <trkpt lat="50.64855" lon="3.31587">
        <ele>-135</ele>
        <time>2017-12-03T10:18:38Z</time>
      </trkpt>
      <trkpt lat="50.64857" lon="3.31632">
        <ele>-136</ele>
        <time>2017-12-03T10:18:42Z</time>
      </trkpt>
      <trkpt lat="50.64857" lon="3.31675">
        <ele>-136</ele>
        <time>2017-12-03T10:18:46Z</time>
      </trkpt>
      <trkpt lat="50.64857" lon="3.31714">
        <ele>-136</ele>
        <time>2017-12-03T10:18:50Z</time>
      </trkpt>
      <trkpt lat="50.64855" lon="3.31751">
        <ele>-136</ele>
        <time>2017-12-03T10:18:54Z</time>
      </trkpt>
      <trkpt lat="50.64853" lon="3.3179">
        <ele>-136</ele>
        <time>2017-12-03T10:18:58Z</time>
      </trkpt>
      <trkpt lat="50.6485" lon="3.31832">
        <ele>-136</ele>
        <time>2017-12-03T10:19:02Z</time>
      </trkpt>
      <trkpt lat="50.64847" lon="3.31874">
        <ele>-136</ele>
        <time>2017-12-03T10:19:06Z</time>
      </trkpt>
      <trkpt lat="50.64845" lon="3.31915">
        <ele>-137</ele>
        <time>2017-12-03T10:19:10Z</time>
      </trkpt>
      <trkpt lat="50.64842" lon="3.31955">
        <ele>-136</ele>
        <time>2017-12-03T10:19:14Z</time>
      </trkpt>
      <trkpt lat="50.6484" lon="3.31994">
        <ele>-137</ele>
        <time>2017-12-03T10:19:18Z</time>
      </trkpt>
      <trkpt lat="50.64838" lon="3.32034">
        <ele>-137</ele>
        <time>2017-12-03T10:19:22Z</time>
      </trkpt>
      <trkpt lat="50.64836" lon="3.32075">
        <ele>-136</ele>
        <time>2017-12-03T10:19:26Z</time>
      </trkpt>
      <trkpt lat="50.64833" lon="3.32115">
        <ele>-136</ele>
        <time>2017-12-03T10:19:30Z</time>
      </trkpt>
      <trkpt lat="50.64834" lon="3.32155">
        <ele>-136</ele>
        <time>2017-12-03T10:19:34Z</time>
      </trkpt>
      <trkpt lat="50.64843" lon="3.32191">
        <ele>-136</ele>
        <time>2017-12-03T10:19:38Z</time>
      </trkpt>
      <trkpt lat="50.64857" lon="3.32219">
        <ele>-136</ele>
        <time>2017-12-03T10:19:42Z</time>
      </trkpt>
      <trkpt lat="50.64872" lon="3.32244">
        <ele>-136</ele>
        <time>2017-12-03T10:19:46Z</time>
      </trkpt>
      <trkpt lat="50.64887" lon="3.32267">
        <ele>-136</ele>
        <time>2017-12-03T10:19:50Z</time>
      </trkpt>
      <trkpt lat="50.64902" lon="3.3229">
        <ele>-136</ele>
        <time>2017-12-03T10:19:54Z</time>
      </trkpt>
      <trkpt lat="50.64918" lon="3.32316">
        <ele>-136</ele>
        <time>2017-12-03T10:19:58Z</time>
      </trkpt>
      <trkpt lat="50.64933" lon="3.32343">
        <ele>-136</ele>
        <time>2017-12-03T10:20:02Z</time>
      </trkpt>
      <trkpt lat="50.64944" lon="3.32375">
        <ele>-137</ele>
        <time>2017-12-03T10:20:06Z</time>
      </trkpt>
      <trkpt lat="50.64948" lon="3.32411">
        <ele>-136</ele>
        <time>2017-12-03T10:20:10Z</time>
      </trkpt>
      <trkpt lat="50.64947" lon="3.32448">
        <ele>-136</ele>
        <time>2017-12-03T10:20:14Z</time>
      </trkpt>
      <trkpt lat="50.64946" lon="3.32485">
        <ele>-135</ele>
        <time>2017-12-03T10:20:18Z</time>
      </trkpt>
      <trkpt lat="50.64945" lon="3.32522">
        <ele>-136</ele>
        <time>2017-12-03T10:20:22Z</time>
      </trkpt>
      <trkpt lat="50.64944" lon="3.32558">
        <ele>-136</ele>
        <time>2017-12-03T10:20:26Z</time>
      </trkpt>
      <trkpt lat="50.64943" lon="3.32595">
        <ele>-136</ele>
        <time>2017-12-03T10:20:30Z</time>
      </trkpt>
      <trkpt lat="50.64941" lon="3.32632">
        <ele>-136</ele>
        <time>2017-12-03T10:20:34Z</time>
      </trkpt>
      <trkpt lat="50.6494" lon="3.32669">
        <ele>-136</ele>
        <time>2017-12-03T10:20:38Z</time>
      </trkpt>
      <trkpt lat="50.6494" lon="3.32706">
        <ele>-135</ele>
        <time>2017-12-03T10:20:42Z</time>
      </trkpt>
      <trkpt lat="50.64938" lon="3.32743">
        <ele>-135</ele>
        <time>2017-12-03T10:20:46Z</time>
      </trkpt>
      <trkpt lat="50.64938" lon="3.32781">
        <ele>-135</ele>
        <time>2017-12-03T10:20:50Z</time>
      </trkpt>
      <trkpt lat="50.64936" lon="3.32818">
        <ele>-135</ele>
        <time>2017-12-03T10:20:54Z</time>
      </trkpt>
      <trkpt lat="50.64932" lon="3.32855">
        <ele>-135</ele>
        <time>2017-12-03T10:20:58Z</time>
      </trkpt>
      <trkpt lat="50.64926" lon="3.32892">
        <ele>-135</ele>
        <time>2017-12-03T10:21:02Z</time>
      </trkpt>
      <trkpt lat="50.64919" lon="3.32929">
        <ele>-134</ele>
        <time>2017-12-03T10:21:06Z</time>
      </trkpt>
      <trkpt lat="50.64911" lon="3.32964">
        <ele>-134</ele>
        <time>2017-12-03T10:21:10Z</time>
      </trkpt>
      <trkpt lat="50.64903" lon="3.32996">
        <ele>-134</ele>
        <time>2017-12-03T10:21:14Z</time>
      </trkpt>
      <trkpt lat="50.64895" lon="3.33027">
        <ele>-134</ele>
        <time>2017-12-03T10:21:18Z</time>
      </trkpt>
      <trkpt lat="50.64886" lon="3.33058">
        <ele>-133</ele>
        <time>2017-12-03T10:21:22Z</time>
      </trkpt>
      <trkpt lat="50.64878" lon="3.33089">
        <ele>-133</ele>
        <time>2017-12-03T10:21:26Z</time>
      </trkpt>
      <trkpt lat="50.64871" lon="3.33121">
        <ele>-133</ele>
        <time>2017-12-03T10:21:30Z</time>
      </trkpt>
      <trkpt lat="50.64864" lon="3.33153">
        <ele>-133</ele>
        <time>2017-12-03T10:21:34Z</time>
      </trkpt>
      <trkpt lat="50.64858" lon="3.33186">
        <ele>-133</ele>
        <time>2017-12-03T10:21:38Z</time>
      </trkpt>
      <trkpt lat="50.64851" lon="3.33219">
        <ele>-133</ele>
        <time>2017-12-03T10:21:42Z</time>
      </trkpt>
      <trkpt lat="50.64846" lon="3.33252">
        <ele>-131</ele>
        <time>2017-12-03T10:21:46Z</time>
      </trkpt>
      <trkpt lat="50.6484" lon="3.33286">
        <ele>-131</ele>
        <time>2017-12-03T10:21:50Z</time>
      </trkpt>
      <trkpt lat="50.64834" lon="3.33319">
        <ele>-131</ele>
        <time>2017-12-03T10:21:54Z</time>
      </trkpt>
      <trkpt lat="50.64828" lon="3.33352">
        <ele>-130</ele>
        <time>2017-12-03T10:21:58Z</time>
      </trkpt>
      <trkpt lat="50.64822" lon="3.33384">
        <ele>-131</ele>
        <time>2017-12-03T10:22:02Z</time>
      </trkpt>
      <trkpt lat="50.64815" lon="3.33417">
        <ele>-131</ele>
        <time>2017-12-03T10:22:06Z</time>
      </trkpt>
      <trkpt lat="50.64808" lon="3.33449">
        <ele>-131</ele>
        <time>2017-12-03T10:22:10Z</time>
      </trkpt>
      <trkpt lat="50.64799" lon="3.33483">
        <ele>-131</ele>
        <time>2017-12-03T10:22:14Z</time>
      </trkpt>
      <trkpt lat="50.64791" lon="3.33516">
        <ele>-131</ele>
        <time>2017-12-03T10:22:18Z</time>
      </trkpt>
      <trkpt lat="50.64783" lon="3.33552">
        <ele>-132</ele>
        <time>2017-12-03T10:22:22Z</time>
      </trkpt>
      <trkpt lat="50.64776" lon="3.33588">
        <ele>-132</ele>
        <time>2017-12-03T10:22:26Z</time>
      </trkpt>
      <trkpt lat="50.64768" lon="3.33624">
        <ele>-133</ele>
        <time>2017-12-03T10:22:30Z</time>
      </trkpt>
      <trkpt lat="50.64763" lon="3.33663">
        <ele>-133</ele>
        <time>2017-12-03T10:22:34Z</time>
      </trkpt>
      <trkpt lat="50.64759" lon="3.33702">
        <ele>-134</ele>
        <time>2017-12-03T10:22:38Z</time>
      </trkpt>
      <trkpt lat="50.64755" lon="3.33741">
        <ele>-133</ele>
        <time>2017-12-03T10:22:42Z</time>
      </trkpt>
      <trkpt lat="50.64748" lon="3.3378">
        <ele>-134</ele>
        <time>2017-12-03T10:22:46Z</time>
      </trkpt>
      <trkpt lat="50.6474" lon="3.33817">
        <ele>-134</ele>
        <time>2017-12-03T10:22:50Z</time>
      </trkpt>
      <trkpt lat="50.6473" lon="3.33854">
        <ele>-135</ele>
        <time>2017-12-03T10:22:54Z</time>
      </trkpt>
      <trkpt lat="50.64718" lon="3.33889">
        <ele>-135</ele>
        <time>2017-12-03T10:22:58Z</time>
      </trkpt>
      <trkpt lat="50.64707" lon="3.33925">
        <ele>-135</ele>
        <time>2017-12-03T10:23:02Z</time>
      </trkpt>
      <trkpt lat="50.64696" lon="3.3396">
        <ele>-135</ele>
        <time>2017-12-03T10:23:06Z</time>
      </trkpt>
      <trkpt lat="50.64683" lon="3.33994">
        <ele>-136</ele>
        <time>2017-12-03T10:23:10Z</time>
      </trkpt>
      <trkpt lat="50.64666" lon="3.34022">
        <ele>-136</ele>
        <time>2017-12-03T10:23:14Z</time>
      </trkpt>
      <trkpt lat="50.64649" lon="3.3405">
        <ele>-136</ele>
        <time>2017-12-03T10:23:18Z</time>
      </trkpt>
      <trkpt lat="50.64631" lon="3.3408">
        <ele>-136</ele>
        <time>2017-12-03T10:23:22Z</time>
      </trkpt>
      <trkpt lat="50.64614" lon="3.34109">
        <ele>-136</ele>
        <time>2017-12-03T10:23:26Z</time>
      </trkpt>
      <trkpt lat="50.64597" lon="3.34139">
        <ele>-136</ele>
        <time>2017-12-03T10:23:30Z</time>
      </trkpt>
      <trkpt lat="50.6458" lon="3.34168">
        <ele>-136</ele>
        <time>2017-12-03T10:23:34Z</time>
      </trkpt>
      <trkpt lat="50.64563" lon="3.34197">
        <ele>-136</ele>
        <time>2017-12-03T10:23:38Z</time>
      </trkpt>
      <trkpt lat="50.64547" lon="3.34224">
        <ele>-137</ele>
        <time>2017-12-03T10:23:42Z</time>
      </trkpt>
      <trkpt lat="50.64532" lon="3.34251">
        <ele>-137</ele>
        <time>2017-12-03T10:23:46Z</time>
      </trkpt>
      <trkpt lat="50.64516" lon="3.34276">
        <ele>-137</ele>
        <time>2017-12-03T10:23:50Z</time>
      </trkpt>
      <trkpt lat="50.64501" lon="3.34298">
        <ele>-137</ele>
        <time>2017-12-03T10:23:54Z</time>
      </trkpt>
      <trkpt lat="50.64487" lon="3.34319">
        <ele>-137</ele>
        <time>2017-12-03T10:23:58Z</time>
      </trkpt>
      <trkpt lat="50.64474" lon="3.34343">
        <ele>-137</ele>
        <time>2017-12-03T10:24:02Z</time>
      </trkpt>
      <trkpt lat="50.64466" lon="3.34369">
        <ele>-137</ele>
        <time>2017-12-03T10:24:06Z</time>
      </trkpt>
      <trkpt lat="50.64454" lon="3.3439">
        <ele>-138</ele>
        <time>2017-12-03T10:24:10Z</time>
      </trkpt>
      <trkpt lat="50.64443" lon="3.34415">
        <ele>-138</ele>
        <time>2017-12-03T10:24:14Z</time>
      </trkpt>
      <trkpt lat="50.64433" lon="3.34446">
        <ele>-138</ele>
        <time>2017-12-03T10:24:18Z</time>
      </trkpt>
      <trkpt lat="50.64416" lon="3.34472">
        <ele>-139</ele>
        <time>2017-12-03T10:24:22Z</time>
      </trkpt>
      <trkpt lat="50.64399" lon="3.34499">
        <ele>-138</ele>
        <time>2017-12-03T10:24:26Z</time>
      </trkpt>
      <trkpt lat="50.64382" lon="3.34526">
        <ele>-138</ele>
        <time>2017-12-03T10:24:30Z</time>
      </trkpt>
      <trkpt lat="50.64365" lon="3.34552">
        <ele>-139</ele>
        <time>2017-12-03T10:24:34Z</time>
      </trkpt>
      <trkpt lat="50.64348" lon="3.34576">
        <ele>-140</ele>
        <time>2017-12-03T10:24:38Z</time>
      </trkpt>
      <trkpt lat="50.64331" lon="3.34597">
        <ele>-140</ele>
        <time>2017-12-03T10:24:42Z</time>
      </trkpt>
      <trkpt lat="50.64317" lon="3.34618">
        <ele>-140</ele>
        <time>2017-12-03T10:24:46Z</time>
      </trkpt>
      <trkpt lat="50.64324" lon="3.34643">
        <ele>-140</ele>
        <time>2017-12-03T10:24:50Z</time>
      </trkpt>
      <trkpt lat="50.64339" lon="3.34659">
        <ele>-139</ele>
        <time>2017-12-03T10:24:54Z</time>
      </trkpt>
      <trkpt lat="50.64356" lon="3.3465">
        <ele>-139</ele>
        <time>2017-12-03T10:24:58Z</time>
      </trkpt>
      <trkpt lat="50.64373" lon="3.34634">
        <ele>-140</ele>
        <time>2017-12-03T10:25:02Z</time>
      </trkpt>
      <trkpt lat="50.64391" lon="3.34614">
        <ele>-140</ele>
        <time>2017-12-03T10:25:06Z</time>
      </trkpt>
      <trkpt lat="50.64399" lon="3.34587">
        <ele>-140</ele>
        <time>2017-12-03T10:25:10Z</time>
      </trkpt>
      <trkpt lat="50.64409" lon="3.34567">
        <ele>-140</ele>
        <time>2017-12-03T10:25:14Z</time>
      </trkpt>
      <trkpt lat="50.64426" lon="3.34567">
        <ele>-140</ele>
        <time>2017-12-03T10:25:18Z</time>
      </trkpt>
      <trkpt lat="50.64447" lon="3.34569">
        <ele>-141</ele>
        <time>2017-12-03T10:25:22Z</time>
      </trkpt>
      <trkpt lat="50.64467" lon="3.3457">
        <ele>-140</ele>
        <time>2017-12-03T10:25:26Z</time>
      </trkpt>
      <trkpt lat="50.64487" lon="3.34571">
        <ele>-140</ele>
        <time>2017-12-03T10:25:30Z</time>
      </trkpt>
      <trkpt lat="50.64503" lon="3.34586">
        <ele>-140</ele>
        <time>2017-12-03T10:25:34Z</time>
      </trkpt>
      <trkpt lat="50.64507" lon="3.34619">
        <ele>-140</ele>
        <time>2017-12-03T10:25:38Z</time>
      </trkpt>
      <trkpt lat="50.64511" lon="3.34654">
        <ele>-141</ele>
        <time>2017-12-03T10:25:42Z</time>
      </trkpt>
      <trkpt lat="50.64515" lon="3.3469">
        <ele>-141</ele>
        <time>2017-12-03T10:25:46Z</time>
      </trkpt>
      <trkpt lat="50.64519" lon="3.34725">
        <ele>-141</ele>
        <time>2017-12-03T10:25:50Z</time>
      </trkpt>
      <trkpt lat="50.64522" lon="3.34761">
        <ele>-141</ele>
        <time>2017-12-03T10:25:54Z</time>
      </trkpt>
      <trkpt lat="50.64526" lon="3.34797">
        <ele>-141</ele>
        <time>2017-12-03T10:25:58Z</time>
      </trkpt>
      <trkpt lat="50.64529" lon="3.3483">
        <ele>-140</ele>
        <time>2017-12-03T10:26:02Z</time>
      </trkpt>
      <trkpt lat="50.64532" lon="3.34863">
        <ele>-139</ele>
        <time>2017-12-03T10:26:06Z</time>
      </trkpt>
      <trkpt lat="50.64536" lon="3.34898">
        <ele>-139</ele>
        <time>2017-12-03T10:26:10Z</time>
      </trkpt>
      <trkpt lat="50.6454" lon="3.34931">
        <ele>-138</ele>
        <time>2017-12-03T10:26:14Z</time>
      </trkpt>
      <trkpt lat="50.64542" lon="3.34968">
        <ele>-137</ele>
        <time>2017-12-03T10:26:18Z</time>
      </trkpt>
      <trkpt lat="50.64547" lon="3.35004">
        <ele>-137</ele>
        <time>2017-12-03T10:26:22Z</time>
      </trkpt>
      <trkpt lat="50.6455" lon="3.35039">
        <ele>-137</ele>
        <time>2017-12-03T10:26:26Z</time>
      </trkpt>
      <trkpt lat="50.64554" lon="3.35074">
        <ele>-138</ele>
        <time>2017-12-03T10:26:30Z</time>
      </trkpt>
      <trkpt lat="50.64558" lon="3.35107">
        <ele>-138</ele>
        <time>2017-12-03T10:26:34Z</time>
      </trkpt>
      <trkpt lat="50.64562" lon="3.35146">
        <ele>-139</ele>
        <time>2017-12-03T10:26:38Z</time>
      </trkpt>
      <trkpt lat="50.64565" lon="3.35185">
        <ele>-140</ele>
        <time>2017-12-03T10:26:42Z</time>
      </trkpt>
      <trkpt lat="50.64568" lon="3.35226">
        <ele>-141</ele>
        <time>2017-12-03T10:26:46Z</time>
      </trkpt>
      <trkpt lat="50.64571" lon="3.35269">
        <ele>-142</ele>
        <time>2017-12-03T10:26:50Z</time>
      </trkpt>
      <trkpt lat="50.64572" lon="3.35312">
        <ele>-142</ele>
        <time>2017-12-03T10:26:54Z</time>
      </trkpt>
      <trkpt lat="50.64572" lon="3.35356">
        <ele>-143</ele>
        <time>2017-12-03T10:26:58Z</time>
      </trkpt>
      <trkpt lat="50.64571" lon="3.35397">
        <ele>-143</ele>
        <time>2017-12-03T10:27:02Z</time>
      </trkpt>
      <trkpt lat="50.6457" lon="3.35437">
        <ele>-143</ele>
        <time>2017-12-03T10:27:06Z</time>
      </trkpt>
      <trkpt lat="50.64569" lon="3.35476">
        <ele>-143</ele>
        <time>2017-12-03T10:27:10Z</time>
      </trkpt>
      <trkpt lat="50.64568" lon="3.35515">
        <ele>-144</ele>
        <time>2017-12-03T10:27:14Z</time>
      </trkpt>
      <trkpt lat="50.64567" lon="3.35552">
        <ele>-143</ele>
        <time>2017-12-03T10:27:18Z</time>
      </trkpt>
      <trkpt lat="50.64567" lon="3.35588">
        <ele>-143</ele>
        <time>2017-12-03T10:27:22Z</time>
      </trkpt>
      <trkpt lat="50.6457" lon="3.35622">
        <ele>-143</ele>
        <time>2017-12-03T10:27:26Z</time>
      </trkpt>
      <trkpt lat="50.64583" lon="3.35654">
        <ele>-143</ele>
        <time>2017-12-03T10:27:30Z</time>
      </trkpt>
      <trkpt lat="50.64596" lon="3.35686">
        <ele>-142</ele>
        <time>2017-12-03T10:27:34Z</time>
      </trkpt>
      <trkpt lat="50.6461" lon="3.35717">
        <ele>-141</ele>
        <time>2017-12-03T10:27:38Z</time>
      </trkpt>
      <trkpt lat="50.64628" lon="3.35744">
        <ele>-141</ele>
        <time>2017-12-03T10:27:42Z</time>
      </trkpt>
      <trkpt lat="50.64647" lon="3.35768">
        <ele>-141</ele>
        <time>2017-12-03T10:27:46Z</time>
      </trkpt>
      <trkpt lat="50.64666" lon="3.35791">
        <ele>-141</ele>
        <time>2017-12-03T10:27:50Z</time>
      </trkpt>
      <trkpt lat="50.64682" lon="3.3582">
        <ele>-141</ele>
        <time>2017-12-03T10:27:54Z</time>
      </trkpt>
      <trkpt lat="50.64695" lon="3.35852">
        <ele>-140</ele>
        <time>2017-12-03T10:27:58Z</time>
      </trkpt>
      <trkpt lat="50.64709" lon="3.35883">
        <ele>-140</ele>
        <time>2017-12-03T10:28:02Z</time>
      </trkpt>
      <trkpt lat="50.64722" lon="3.35914">
        <ele>-139</ele>
        <time>2017-12-03T10:28:06Z</time>
      </trkpt>
      <trkpt lat="50.64736" lon="3.35945">
        <ele>-139</ele>
        <time>2017-12-03T10:28:10Z</time>
      </trkpt>
      <trkpt lat="50.64749" lon="3.35977">
        <ele>-138</ele>
        <time>2017-12-03T10:28:14Z</time>
      </trkpt>
      <trkpt lat="50.64761" lon="3.36009">
        <ele>-137</ele>
        <time>2017-12-03T10:28:18Z</time>
      </trkpt>
      <trkpt lat="50.64767" lon="3.36045">
        <ele>-137</ele>
        <time>2017-12-03T10:28:22Z</time>
      </trkpt>
      <trkpt lat="50.64771" lon="3.36081">
        <ele>-136</ele>
        <time>2017-12-03T10:28:26Z</time>
      </trkpt>
      <trkpt lat="50.64767" lon="3.36118">
        <ele>-135</ele>
        <time>2017-12-03T10:28:30Z</time>
      </trkpt>
      <trkpt lat="50.64763" lon="3.36154">
        <ele>-134</ele>
        <time>2017-12-03T10:28:34Z</time>
      </trkpt>
      <trkpt lat="50.64769" lon="3.36189">
        <ele>-134</ele>
        <time>2017-12-03T10:28:38Z</time>
      </trkpt>
      <trkpt lat="50.64781" lon="3.36213">
        <ele>-132</ele>
        <time>2017-12-03T10:28:42Z</time>
      </trkpt>
      <trkpt lat="50.64795" lon="3.36233">
        <ele>-131</ele>
        <time>2017-12-03T10:28:46Z</time>
      </trkpt>
      <trkpt lat="50.64809" lon="3.36252">
        <ele>-130</ele>
        <time>2017-12-03T10:28:50Z</time>
      </trkpt>
      <trkpt lat="50.64822" lon="3.36272">
        <ele>-129</ele>
        <time>2017-12-03T10:28:54Z</time>
      </trkpt>
      <trkpt lat="50.64834" lon="3.36291">
        <ele>-128</ele>
        <time>2017-12-03T10:28:58Z</time>
      </trkpt>
      <trkpt lat="50.64848" lon="3.36311">
        <ele>-128</ele>
        <time>2017-12-03T10:29:02Z</time>
      </trkpt>
      <trkpt lat="50.6486" lon="3.36335">
        <ele>-127</ele>
        <time>2017-12-03T10:29:06Z</time>
      </trkpt>
      <trkpt lat="50.6487" lon="3.36362">
        <ele>-127</ele>
        <time>2017-12-03T10:29:10Z</time>
      </trkpt>
      <trkpt lat="50.6488" lon="3.36391">
        <ele>-127</ele>
        <time>2017-12-03T10:29:14Z</time>
      </trkpt>
      <trkpt lat="50.64889" lon="3.3642">
        <ele>-126</ele>
        <time>2017-12-03T10:29:18Z</time>
      </trkpt>
      <trkpt lat="50.649" lon="3.36446">
        <ele>-126</ele>
        <time>2017-12-03T10:29:22Z</time>
      </trkpt>
      <trkpt lat="50.64912" lon="3.36472">
        <ele>-126</ele>
        <time>2017-12-03T10:29:26Z</time>
      </trkpt>
      <trkpt lat="50.64924" lon="3.36496">
        <ele>-125</ele>
        <time>2017-12-03T10:29:30Z</time>
      </trkpt>
      <trkpt lat="50.64922" lon="3.36525">
        <ele>-125</ele>
        <time>2017-12-03T10:29:34Z</time>
      </trkpt>
      <trkpt lat="50.64911" lon="3.36549">
        <ele>-125</ele>
        <time>2017-12-03T10:29:38Z</time>
      </trkpt>
      <trkpt lat="50.64899" lon="3.36571">
        <ele>-124</ele>
        <time>2017-12-03T10:29:42Z</time>
      </trkpt>
      <trkpt lat="50.64887" lon="3.36594">
        <ele>-124</ele>
        <time>2017-12-03T10:29:46Z</time>
      </trkpt>
      <trkpt lat="50.64876" lon="3.36618">
        <ele>-124</ele>
        <time>2017-12-03T10:29:50Z</time>
      </trkpt>
      <trkpt lat="50.64863" lon="3.36641">
        <ele>-124</ele>
        <time>2017-12-03T10:29:54Z</time>
      </trkpt>
      <trkpt lat="50.64851" lon="3.36665">
        <ele>-123</ele>
        <time>2017-12-03T10:29:58Z</time>
      </trkpt>
      <trkpt lat="50.64839" lon="3.3669">
        <ele>-123</ele>
        <time>2017-12-03T10:30:02Z</time>
      </trkpt>
      <trkpt lat="50.64826" lon="3.36714">
        <ele>-123</ele>
        <time>2017-12-03T10:30:06Z</time>
      </trkpt>
      <trkpt lat="50.64814" lon="3.36739">
        <ele>-122</ele>
        <time>2017-12-03T10:30:10Z</time>
      </trkpt>
      <trkpt lat="50.64802" lon="3.36763">
        <ele>-122</ele>
        <time>2017-12-03T10:30:14Z</time>
      </trkpt>
      <trkpt lat="50.64791" lon="3.36786">
        <ele>-121</ele>
        <time>2017-12-03T10:30:18Z</time>
      </trkpt>
      <trkpt lat="50.64778" lon="3.3681">
        <ele>-121</ele>
        <time>2017-12-03T10:30:22Z</time>
      </trkpt>
      <trkpt lat="50.64767" lon="3.36833">
        <ele>-120</ele>
        <time>2017-12-03T10:30:26Z</time>
      </trkpt>
      <trkpt lat="50.64753" lon="3.36857">
        <ele>-120</ele>
        <time>2017-12-03T10:30:30Z</time>
      </trkpt>
      <trkpt lat="50.64737" lon="3.3688">
        <ele>-120</ele>
        <time>2017-12-03T10:30:34Z</time>
      </trkpt>
      <trkpt lat="50.6472" lon="3.36902">
        <ele>-120</ele>
        <time>2017-12-03T10:30:38Z</time>
      </trkpt>
      <trkpt lat="50.64704" lon="3.3692">
        <ele>-120</ele>
        <time>2017-12-03T10:30:42Z</time>
      </trkpt>
      <trkpt lat="50.64688" lon="3.36935">
        <ele>-120</ele>
        <time>2017-12-03T10:30:46Z</time>
      </trkpt>
      <trkpt lat="50.64673" lon="3.3695">
        <ele>-121</ele>
        <time>2017-12-03T10:30:50Z</time>
      </trkpt>
      <trkpt lat="50.64655" lon="3.36967">
        <ele>-122</ele>
        <time>2017-12-03T10:30:54Z</time>
      </trkpt>
      <trkpt lat="50.64637" lon="3.36985">
        <ele>-123</ele>
        <time>2017-12-03T10:30:58Z</time>
      </trkpt>
      <trkpt lat="50.64618" lon="3.37005">
        <ele>-123</ele>
        <time>2017-12-03T10:31:02Z</time>
      </trkpt>
      <trkpt lat="50.64597" lon="3.37026">
        <ele>-124</ele>
        <time>2017-12-03T10:31:06Z</time>
      </trkpt>
      <trkpt lat="50.64575" lon="3.37047">
        <ele>-126</ele>
        <time>2017-12-03T10:31:10Z</time>
      </trkpt>
      <trkpt lat="50.64553" lon="3.37068">
        <ele>-127</ele>
        <time>2017-12-03T10:31:14Z</time>
      </trkpt>
      <trkpt lat="50.6453" lon="3.37091">
        <ele>-128</ele>
        <time>2017-12-03T10:31:18Z</time>
      </trkpt>
      <trkpt lat="50.64506" lon="3.37115">
        <ele>-129</ele>
        <time>2017-12-03T10:31:22Z</time>
      </trkpt>
      <trkpt lat="50.64481" lon="3.37139">
        <ele>-130</ele>
        <time>2017-12-03T10:31:26Z</time>
      </trkpt>
      <trkpt lat="50.64457" lon="3.37155">
        <ele>-130</ele>
        <time>2017-12-03T10:31:30Z</time>
      </trkpt>
      <trkpt lat="50.64431" lon="3.37161">
        <ele>-131</ele>
        <time>2017-12-03T10:31:34Z</time>
      </trkpt>
      <trkpt lat="50.64404" lon="3.37165">
        <ele>-132</ele>
        <time>2017-12-03T10:31:38Z</time>
      </trkpt>
      <trkpt lat="50.64379" lon="3.37169">
        <ele>-132</ele>
        <time>2017-12-03T10:31:42Z</time>
      </trkpt>
      <trkpt lat="50.64355" lon="3.37172">
        <ele>-132</ele>
        <time>2017-12-03T10:31:46Z</time>
      </trkpt>
      <trkpt lat="50.64332" lon="3.37175">
        <ele>-133</ele>
        <time>2017-12-03T10:31:50Z</time>
      </trkpt>
      <trkpt lat="50.64316" lon="3.37193">
        <ele>-133</ele>
        <time>2017-12-03T10:31:54Z</time>
      </trkpt>
      <trkpt lat="50.64309" lon="3.37222">
        <ele>-133</ele>
        <time>2017-12-03T10:31:58Z</time>
      </trkpt>
      <trkpt lat="50.64301" lon="3.37249">
        <ele>-133</ele>
        <time>2017-12-03T10:32:02Z</time>
      </trkpt>
      <trkpt lat="50.64293" lon="3.37276">
        <ele>-132</ele>
        <time>2017-12-03T10:32:06Z</time>
      </trkpt>
      <trkpt lat="50.64288" lon="3.37301">
        <ele>-133</ele>
        <time>2017-12-03T10:32:10Z</time>
      </trkpt>
      <trkpt lat="50.64283" lon="3.37327">
        <ele>-132</ele>
        <time>2017-12-03T10:32:14Z</time>
      </trkpt>
      <trkpt lat="50.64282" lon="3.37355">
        <ele>-133</ele>
        <time>2017-12-03T10:32:18Z</time>
      </trkpt>
      <trkpt lat="50.64283" lon="3.37384">
        <ele>-132</ele>
        <time>2017-12-03T10:32:22Z</time>
      </trkpt>
      <trkpt lat="50.64286" lon="3.37412">
        <ele>-132</ele>
        <time>2017-12-03T10:32:26Z</time>
      </trkpt>
      <trkpt lat="50.6429" lon="3.37438">
        <ele>-131</ele>
        <time>2017-12-03T10:32:30Z</time>
      </trkpt>
      <trkpt lat="50.64296" lon="3.37464">
        <ele>-130</ele>
        <time>2017-12-03T10:32:34Z</time>
      </trkpt>
      <trkpt lat="50.64305" lon="3.37488">
        <ele>-129</ele>
        <time>2017-12-03T10:32:38Z</time>
      </trkpt>
      <trkpt lat="50.64318" lon="3.37508">
        <ele>-129</ele>
        <time>2017-12-03T10:32:42Z</time>
      </trkpt>
      <trkpt lat="50.64333" lon="3.37523">
        <ele>-128</ele>
        <time>2017-12-03T10:32:46Z</time>
      </trkpt>
      <trkpt lat="50.64349" lon="3.37533">
        <ele>-128</ele>
        <time>2017-12-03T10:32:50Z</time>
      </trkpt>
      <trkpt lat="50.64366" lon="3.37543">
        <ele>-127</ele>
        <time>2017-12-03T10:32:54Z</time>
      </trkpt>
      <trkpt lat="50.64381" lon="3.37553">
        <ele>-127</ele>
        <time>2017-12-03T10:32:58Z</time>
      </trkpt>
      <trkpt lat="50.64391" lon="3.37575">
        <ele>-126</ele>
        <time>2017-12-03T10:33:02Z</time>
      </trkpt>
      <trkpt lat="50.64388" lon="3.37602">
        <ele>-127</ele>
        <time>2017-12-03T10:33:06Z</time>
      </trkpt>
      <trkpt lat="50.64383" lon="3.37627">
        <ele>-128</ele>
        <time>2017-12-03T10:33:10Z</time>
      </trkpt>
      <trkpt lat="50.64377" lon="3.37655">
        <ele>-128</ele>
        <time>2017-12-03T10:33:14Z</time>
      </trkpt>
      <trkpt lat="50.6437" lon="3.37685">
        <ele>-129</ele>
        <time>2017-12-03T10:33:18Z</time>
      </trkpt>
      <trkpt lat="50.64365" lon="3.37717">
        <ele>-130</ele>
        <time>2017-12-03T10:33:22Z</time>
      </trkpt>
      <trkpt lat="50.6436" lon="3.37749">
        <ele>-130</ele>
        <time>2017-12-03T10:33:26Z</time>
      </trkpt>
      <trkpt lat="50.64356" lon="3.37781">
        <ele>-131</ele>
        <time>2017-12-03T10:33:30Z</time>
      </trkpt>
      <trkpt lat="50.64351" lon="3.37812">
        <ele>-132</ele>
        <time>2017-12-03T10:33:34Z</time>
      </trkpt>
      <trkpt lat="50.64347" lon="3.37844">
        <ele>-133</ele>
        <time>2017-12-03T10:33:38Z</time>
      </trkpt>
      <trkpt lat="50.64343" lon="3.37876">
        <ele>-134</ele>
        <time>2017-12-03T10:33:42Z</time>
      </trkpt>
      <trkpt lat="50.64339" lon="3.37905">
        <ele>-133</ele>
        <time>2017-12-03T10:33:46Z</time>
      </trkpt>
      <trkpt lat="50.64335" lon="3.37936">
        <ele>-134</ele>
        <time>2017-12-03T10:33:50Z</time>
      </trkpt>
      <trkpt lat="50.64331" lon="3.37966">
        <ele>-135</ele>
        <time>2017-12-03T10:33:54Z</time>
      </trkpt>
      <trkpt lat="50.64327" lon="3.37996">
        <ele>-135</ele>
        <time>2017-12-03T10:33:58Z</time>
      </trkpt>
      <trkpt lat="50.64324" lon="3.38024">
        <ele>-136</ele>
        <time>2017-12-03T10:34:02Z</time>
      </trkpt>
      <trkpt lat="50.64321" lon="3.38049">
        <ele>-135</ele>
        <time>2017-12-03T10:34:06Z</time>
      </trkpt>
      <trkpt lat="50.64317" lon="3.3807">
        <ele>-135</ele>
        <time>2017-12-03T10:34:10Z</time>
      </trkpt>
      <trkpt lat="50.64311" lon="3.38093">
        <ele>-135</ele>
        <time>2017-12-03T10:34:14Z</time>
      </trkpt>
      <trkpt lat="50.64304" lon="3.38117">
        <ele>-135</ele>
        <time>2017-12-03T10:34:18Z</time>
      </trkpt>
      <trkpt lat="50.64303" lon="3.38139">
        <ele>-135</ele>
        <time>2017-12-03T10:34:22Z</time>
      </trkpt>
      <trkpt lat="50.64308" lon="3.38158">
        <ele>-134</ele>
        <time>2017-12-03T10:34:26Z</time>
      </trkpt>
      <trkpt lat="50.64315" lon="3.38177">
        <ele>-134</ele>
        <time>2017-12-03T10:34:30Z</time>
      </trkpt>
      <trkpt lat="50.64323" lon="3.38197">
        <ele>-134</ele>
        <time>2017-12-03T10:34:34Z</time>
      </trkpt>
      <trkpt lat="50.64331" lon="3.38217">
        <ele>-133</ele>
        <time>2017-12-03T10:34:38Z</time>
      </trkpt>
      <trkpt lat="50.64338" lon="3.38237">
        <ele>-132</ele>
        <time>2017-12-03T10:34:42Z</time>
      </trkpt>
      <trkpt lat="50.6434" lon="3.3826">
        <ele>-131</ele>
        <time>2017-12-03T10:34:46Z</time>
      </trkpt>
      <trkpt lat="50.64341" lon="3.38283">
        <ele>-130</ele>
        <time>2017-12-03T10:34:50Z</time>
      </trkpt>
      <trkpt lat="50.64339" lon="3.38305">
        <ele>-130</ele>
        <time>2017-12-03T10:34:54Z</time>
      </trkpt>
      <trkpt lat="50.64338" lon="3.38328">
        <ele>-129</ele>
        <time>2017-12-03T10:34:58Z</time>
      </trkpt>
      <trkpt lat="50.64336" lon="3.38352">
        <ele>-128</ele>
        <time>2017-12-03T10:35:02Z</time>
      </trkpt>
      <trkpt lat="50.64334" lon="3.38374">
        <ele>-127</ele>
        <time>2017-12-03T10:35:06Z</time>
      </trkpt>
      <trkpt lat="50.64333" lon="3.38395">
        <ele>-127</ele>
        <time>2017-12-03T10:35:10Z</time>
      </trkpt>
      <trkpt lat="50.64331" lon="3.38412">
        <ele>-126</ele>
        <time>2017-12-03T10:35:14Z</time>
      </trkpt>
      <trkpt lat="50.64334" lon="3.38422">
        <ele>-126</ele>
        <time>2017-12-03T10:35:18Z</time>
      </trkpt>
      <trkpt lat="50.64341" lon="3.38425">
        <ele>-125</ele>
        <time>2017-12-03T10:35:22Z</time>
      </trkpt>
      <trkpt lat="50.6435" lon="3.38426">
        <ele>-125</ele>
        <time>2017-12-03T10:35:26Z</time>
      </trkpt>
      <trkpt lat="50.64357" lon="3.38429">
        <ele>-124</ele>
        <time>2017-12-03T10:35:30Z</time>
      </trkpt>
      <trkpt lat="50.64363" lon="3.38432">
        <ele>-124</ele>
        <time>2017-12-03T10:35:34Z</time>
      </trkpt>
      <trkpt lat="50.64371" lon="3.38434">
        <ele>-124</ele>
        <time>2017-12-03T10:35:38Z</time>
      </trkpt>
      <trkpt lat="50.64379" lon="3.38436">
        <ele>-123</ele>
        <time>2017-12-03T10:35:42Z</time>
      </trkpt>
      <trkpt lat="50.64387" lon="3.38437">
        <ele>-123</ele>
        <time>2017-12-03T10:35:46Z</time>
      </trkpt>
      <trkpt lat="50.64395" lon="3.38439">
        <ele>-122</ele>
        <time>2017-12-03T10:35:50Z</time>
      </trkpt>
      <trkpt lat="50.64404" lon="3.38442">
        <ele>-122</ele>
        <time>2017-12-03T10:35:54Z</time>
      </trkpt>
      <trkpt lat="50.64414" lon="3.38445">
        <ele>-122</ele>
        <time>2017-12-03T10:35:58Z</time>
      </trkpt>
      <trkpt lat="50.64423" lon="3.38447">
        <ele>-122</ele>
        <time>2017-12-03T10:36:02Z</time>
      </trkpt>
      <trkpt lat="50.64433" lon="3.38449">
        <ele>-121</ele>
        <time>2017-12-03T10:36:06Z</time>
      </trkpt>
      <trkpt lat="50.64443" lon="3.38452">
        <ele>-120</ele>
        <time>2017-12-03T10:36:10Z</time>
      </trkpt>
      <trkpt lat="50.64452" lon="3.38454">
        <ele>-119</ele>
        <time>2017-12-03T10:36:14Z</time>
      </trkpt>
      <trkpt lat="50.64462" lon="3.38458">
        <ele>-119</ele>
        <time>2017-12-03T10:36:18Z</time>
      </trkpt>
      <trkpt lat="50.64473" lon="3.3846">
        <ele>-119</ele>
        <time>2017-12-03T10:36:22Z</time>
      </trkpt>
      <trkpt lat="50.64483" lon="3.38463">
        <ele>-119</ele>
        <time>2017-12-03T10:36:26Z</time>
      </trkpt>
      <trkpt lat="50.64493" lon="3.38465">
        <ele>-118</ele>
        <time>2017-12-03T10:36:30Z</time>
      </trkpt>
      <trkpt lat="50.64503" lon="3.38465">
        <ele>-117</ele>
        <time>2017-12-03T10:36:34Z</time>
      </trkpt>
      <trkpt lat="50.64515" lon="3.38462">
        <ele>-117</ele>
        <time>2017-12-03T10:36:38Z</time>
      </trkpt>
      <trkpt lat="50.64524" lon="3.38456">
        <ele>-117</ele>
        <time>2017-12-03T10:36:42Z</time>
      </trkpt>
      <trkpt lat="50.6453" lon="3.3845">
        <ele>-117</ele>
        <time>2017-12-03T10:36:46Z</time>
      </trkpt>
      <trkpt lat="50.64537" lon="3.38443">
        <ele>-116</ele>
        <time>2017-12-03T10:36:50Z</time>
      </trkpt>
      <trkpt lat="50.64545" lon="3.38435">
        <ele>-115</ele>
        <time>2017-12-03T10:36:54Z</time>
      </trkpt>
      <trkpt lat="50.64554" lon="3.38426">
        <ele>-115</ele>
        <time>2017-12-03T10:36:58Z</time>
      </trkpt>
      <trkpt lat="50.64566" lon="3.38418">
        <ele>-115</ele>
        <time>2017-12-03T10:37:02Z</time>
      </trkpt>
      <trkpt lat="50.64576" lon="3.38409">
        <ele>-115</ele>
        <time>2017-12-03T10:37:06Z</time>
      </trkpt>
      <trkpt lat="50.64587" lon="3.38405">
        <ele>-115</ele>
        <time>2017-12-03T10:37:10Z</time>
      </trkpt>
      <trkpt lat="50.64599" lon="3.38403">
        <ele>-117</ele>
        <time>2017-12-03T10:37:14Z</time>
      </trkpt>
      <trkpt lat="50.6461" lon="3.38403">
        <ele>-114</ele>
        <time>2017-12-03T10:37:18Z</time>
      </trkpt>
      <trkpt lat="50.64622" lon="3.38406">
        <ele>-114</ele>
        <time>2017-12-03T10:37:22Z</time>
      </trkpt>
      <trkpt lat="50.64634" lon="3.38413">
        <ele>-114</ele>
        <time>2017-12-03T10:37:26Z</time>
      </trkpt>
      <trkpt lat="50.64647" lon="3.38423">
        <ele>-114</ele>
        <time>2017-12-03T10:37:30Z</time>
      </trkpt>
      <trkpt lat="50.64659" lon="3.38435">
        <ele>-113</ele>
        <time>2017-12-03T10:37:34Z</time>
      </trkpt>
      <trkpt lat="50.64671" lon="3.38446">
        <ele>-112</ele>
        <time>2017-12-03T10:37:38Z</time>
      </trkpt>
      <trkpt lat="50.64684" lon="3.38457">
        <ele>-112</ele>
        <time>2017-12-03T10:37:42Z</time>
      </trkpt>
      <trkpt lat="50.64698" lon="3.38465">
        <ele>-110</ele>
        <time>2017-12-03T10:37:46Z</time>
      </trkpt>
      <trkpt lat="50.64713" lon="3.38469">
        <ele>-110</ele>
        <time>2017-12-03T10:37:50Z</time>
      </trkpt>
      <trkpt lat="50.64729" lon="3.38472">
        <ele>-110</ele>
        <time>2017-12-03T10:37:54Z</time>
      </trkpt>
      <trkpt lat="50.64744" lon="3.38474">
        <ele>-109</ele>
        <time>2017-12-03T10:37:58Z</time>
      </trkpt>
      <trkpt lat="50.64759" lon="3.38478">
        <ele>-109</ele>
        <time>2017-12-03T10:38:02Z</time>
      </trkpt>
      <trkpt lat="50.64775" lon="3.38481">
        <ele>-108</ele>
        <time>2017-12-03T10:38:06Z</time>
      </trkpt>
      <trkpt lat="50.6479" lon="3.38491">
        <ele>-108</ele>
        <time>2017-12-03T10:38:10Z</time>
      </trkpt>
      <trkpt lat="50.64804" lon="3.38504">
        <ele>-107</ele>
        <time>2017-12-03T10:38:14Z</time>
      </trkpt>
      <trkpt lat="50.64818" lon="3.38518">
        <ele>-106</ele>
        <time>2017-12-03T10:38:18Z</time>
      </trkpt>
      <trkpt lat="50.64832" lon="3.38531">
        <ele>-105</ele>
        <time>2017-12-03T10:38:22Z</time>
      </trkpt>
      <trkpt lat="50.64846" lon="3.38543">
        <ele>-104</ele>
        <time>2017-12-03T10:38:26Z</time>
      </trkpt>
      <trkpt lat="50.64861" lon="3.38557">
        <ele>-104</ele>
        <time>2017-12-03T10:38:30Z</time>
      </trkpt>
      <trkpt lat="50.64876" lon="3.3857">
        <ele>-103</ele>
        <time>2017-12-03T10:38:34Z</time>
      </trkpt>
      <trkpt lat="50.64891" lon="3.38584">
        <ele>-102</ele>
        <time>2017-12-03T10:38:38Z</time>
      </trkpt>
      <trkpt lat="50.64907" lon="3.38597">
        <ele>-102</ele>
        <time>2017-12-03T10:38:42Z</time>
      </trkpt>
      <trkpt lat="50.64922" lon="3.38611">
        <ele>-102</ele>
        <time>2017-12-03T10:38:46Z</time>
      </trkpt>
      <trkpt lat="50.64937" lon="3.38625">
        <ele>-101</ele>
        <time>2017-12-03T10:38:50Z</time>
      </trkpt>
      <trkpt lat="50.64951" lon="3.38641">
        <ele>-100</ele>
        <time>2017-12-03T10:38:54Z</time>
      </trkpt>
      <trkpt lat="50.64965" lon="3.38656">
        <ele>-99</ele>
        <time>2017-12-03T10:38:58Z</time>
      </trkpt>
      <trkpt lat="50.64979" lon="3.38672">
        <ele>-98</ele>
        <time>2017-12-03T10:39:02Z</time>
      </trkpt>
      <trkpt lat="50.64993" lon="3.38686">
        <ele>-98</ele>
        <time>2017-12-03T10:39:06Z</time>
      </trkpt>
      <trkpt lat="50.65005" lon="3.38701">
        <ele>-97</ele>
        <time>2017-12-03T10:39:10Z</time>
      </trkpt>
      <trkpt lat="50.65017" lon="3.38715">
        <ele>-96</ele>
        <time>2017-12-03T10:39:14Z</time>
      </trkpt>
      <trkpt lat="50.65031" lon="3.38728">
        <ele>-95</ele>
        <time>2017-12-03T10:39:18Z</time>
      </trkpt>
      <trkpt lat="50.65043" lon="3.3874">
        <ele>-94</ele>
        <time>2017-12-03T10:39:22Z</time>
      </trkpt>
      <trkpt lat="50.65056" lon="3.38754">
        <ele>-93</ele>
        <time>2017-12-03T10:39:26Z</time>
      </trkpt>
      <trkpt lat="50.65068" lon="3.38766">
        <ele>-92</ele>
        <time>2017-12-03T10:39:30Z</time>
      </trkpt>
      <trkpt lat="50.6508" lon="3.3878">
        <ele>-91</ele>
        <time>2017-12-03T10:39:34Z</time>
      </trkpt>
      <trkpt lat="50.65087" lon="3.38795">
        <ele>-90</ele>
        <time>2017-12-03T10:39:38Z</time>
      </trkpt>
      <trkpt lat="50.65094" lon="3.38806">
        <ele>-89</ele>
        <time>2017-12-03T10:39:42Z</time>
      </trkpt>
      <trkpt lat="50.651" lon="3.38824">
        <ele>-88</ele>
        <time>2017-12-03T10:39:46Z</time>
      </trkpt>
      <trkpt lat="50.65108" lon="3.38842">
        <ele>-87</ele>
        <time>2017-12-03T10:39:50Z</time>
      </trkpt>
      <trkpt lat="50.65117" lon="3.38858">
        <ele>-86</ele>
        <time>2017-12-03T10:39:54Z</time>
      </trkpt>
      <trkpt lat="50.65126" lon="3.38873">
        <ele>-85</ele>
        <time>2017-12-03T10:39:58Z</time>
      </trkpt>
      <trkpt lat="50.65136" lon="3.38885">
        <ele>-84</ele>
        <time>2017-12-03T10:40:02Z</time>
      </trkpt>
      <trkpt lat="50.65146" lon="3.38894">
        <ele>-84</ele>
        <time>2017-12-03T10:40:06Z</time>
      </trkpt>
      <trkpt lat="50.65157" lon="3.38903">
        <ele>-83</ele>
        <time>2017-12-03T10:40:10Z</time>
      </trkpt>
      <trkpt lat="50.65167" lon="3.38912">
        <ele>-82</ele>
        <time>2017-12-03T10:40:14Z</time>
      </trkpt>
      <trkpt lat="50.65175" lon="3.38919">
        <ele>-81</ele>
        <time>2017-12-03T10:40:18Z</time>
      </trkpt>
      <trkpt lat="50.65183" lon="3.38927">
        <ele>-80</ele>
        <time>2017-12-03T10:40:22Z</time>
      </trkpt>
      <trkpt lat="50.65189" lon="3.38934">
        <ele>-79</ele>
        <time>2017-12-03T10:40:26Z</time>
      </trkpt>
      <trkpt lat="50.65196" lon="3.38944">
        <ele>-78</ele>
        <time>2017-12-03T10:40:30Z</time>
      </trkpt>
      <trkpt lat="50.65203" lon="3.38958">
        <ele>-77</ele>
        <time>2017-12-03T10:40:34Z</time>
      </trkpt>
      <trkpt lat="50.65209" lon="3.38971">
        <ele>-76</ele>
        <time>2017-12-03T10:40:38Z</time>
      </trkpt>
      <trkpt lat="50.65216" lon="3.38983">
        <ele>-76</ele>
        <time>2017-12-03T10:40:42Z</time>
      </trkpt>
      <trkpt lat="50.65227" lon="3.39001">
        <ele>-74</ele>
        <time>2017-12-03T10:40:46Z</time>
      </trkpt>
      <trkpt lat="50.65235" lon="3.39013">
        <ele>-73</ele>
        <time>2017-12-03T10:40:50Z</time>
      </trkpt>
      <trkpt lat="50.65243" lon="3.39023">
        <ele>-72</ele>
        <time>2017-12-03T10:40:54Z</time>
      </trkpt>
      <trkpt lat="50.65252" lon="3.39033">
        <ele>-71</ele>
        <time>2017-12-03T10:40:58Z</time>
      </trkpt>
      <trkpt lat="50.65258" lon="3.39043">
        <ele>-70</ele>
        <time>2017-12-03T10:41:02Z</time>
      </trkpt>
      <trkpt lat="50.65267" lon="3.39054">
        <ele>-70</ele>
        <time>2017-12-03T10:41:06Z</time>
      </trkpt>
      <trkpt lat="50.65275" lon="3.39067">
        <ele>-69</ele>
        <time>2017-12-03T10:41:10Z</time>
      </trkpt>
      <trkpt lat="50.65282" lon="3.3908">
        <ele>-68</ele>
        <time>2017-12-03T10:41:14Z</time>
      </trkpt>
      <trkpt lat="50.65289" lon="3.39093">
        <ele>-68</ele>
        <time>2017-12-03T10:41:18Z</time>
      </trkpt>
      <trkpt lat="50.65296" lon="3.39106">
        <ele>-68</ele>
        <time>2017-12-03T10:41:22Z</time>
      </trkpt>
      <trkpt lat="50.65304" lon="3.39119">
        <ele>-67</ele>
        <time>2017-12-03T10:41:26Z</time>
      </trkpt>
      <trkpt lat="50.65311" lon="3.39131">
        <ele>-66</ele>
        <time>2017-12-03T10:41:30Z</time>
      </trkpt>
      <trkpt lat="50.65319" lon="3.39143">
        <ele>-66</ele>
        <time>2017-12-03T10:41:34Z</time>
      </trkpt>
      <trkpt lat="50.65326" lon="3.39157">
        <ele>-65</ele>
        <time>2017-12-03T10:41:38Z</time>
      </trkpt>
      <trkpt lat="50.65332" lon="3.39173">
        <ele>-65</ele>
        <time>2017-12-03T10:41:42Z</time>
      </trkpt>
      <trkpt lat="50.65336" lon="3.39188">
        <ele>-64</ele>
        <time>2017-12-03T10:41:46Z</time>
      </trkpt>
      <trkpt lat="50.6534" lon="3.39203">
        <ele>-64</ele>
        <time>2017-12-03T10:41:50Z</time>
      </trkpt>
      <trkpt lat="50.65344" lon="3.3922">
        <ele>-63</ele>
        <time>2017-12-03T10:41:54Z</time>
      </trkpt>
      <trkpt lat="50.6535" lon="3.39234">
        <ele>-62</ele>
        <time>2017-12-03T10:41:58Z</time>
      </trkpt>
      <trkpt lat="50.65355" lon="3.39249">
        <ele>-61</ele>
        <time>2017-12-03T10:42:02Z</time>
      </trkpt>
      <trkpt lat="50.65359" lon="3.3926">
        <ele>-61</ele>
        <time>2017-12-03T10:42:06Z</time>
      </trkpt>
      <trkpt lat="50.65366" lon="3.39272">
        <ele>-60</ele>
        <time>2017-12-03T10:42:10Z</time>
      </trkpt>
      <trkpt lat="50.65375" lon="3.39282">
        <ele>-60</ele>
        <time>2017-12-03T10:42:14Z</time>
      </trkpt>
      <trkpt lat="50.65382" lon="3.39292">
        <ele>-59</ele>
        <time>2017-12-03T10:42:18Z</time>
      </trkpt>
      <trkpt lat="50.65391" lon="3.39305">
        <ele>-59</ele>
        <time>2017-12-03T10:42:22Z</time>
      </trkpt>
      <trkpt lat="50.65401" lon="3.39316">
        <ele>-58</ele>
        <time>2017-12-03T10:42:26Z</time>
      </trkpt>
      <trkpt lat="50.6541" lon="3.39327">
        <ele>-58</ele>
        <time>2017-12-03T10:42:30Z</time>
      </trkpt>
      <trkpt lat="50.6542" lon="3.39339">
        <ele>-57</ele>
        <time>2017-12-03T10:42:34Z</time>
      </trkpt>
      <trkpt lat="50.65429" lon="3.39349">
        <ele>-55</ele>
        <time>2017-12-03T10:42:38Z</time>
      </trkpt>
      <trkpt lat="50.65439" lon="3.39357">
        <ele>-55</ele>
        <time>2017-12-03T10:42:42Z</time>
      </trkpt>
      <trkpt lat="50.65449" lon="3.39365">
        <ele>-55</ele>
        <time>2017-12-03T10:42:46Z</time>
      </trkpt>
      <trkpt lat="50.65459" lon="3.39373">
        <ele>-54</ele>
        <time>2017-12-03T10:42:50Z</time>
      </trkpt>
      <trkpt lat="50.65468" lon="3.39384">
        <ele>-53</ele>
        <time>2017-12-03T10:42:54Z</time>
      </trkpt>
      <trkpt lat="50.65477" lon="3.39392">
        <ele>-53</ele>
        <time>2017-12-03T10:42:58Z</time>
      </trkpt>
      <trkpt lat="50.65485" lon="3.394">
        <ele>-52</ele>
        <time>2017-12-03T10:43:02Z</time>
      </trkpt>
      <trkpt lat="50.65492" lon="3.39403">
        <ele>-50</ele>
        <time>2017-12-03T10:43:06Z</time>
      </trkpt>
      <trkpt lat="50.65501" lon="3.39407">
        <ele>-49</ele>
        <time>2017-12-03T10:43:10Z</time>
      </trkpt>
      <trkpt lat="50.65509" lon="3.39412">
        <ele>-49</ele>
        <time>2017-12-03T10:43:14Z</time>
      </trkpt>
      <trkpt lat="50.65521" lon="3.39418">
        <ele>-48</ele>
        <time>2017-12-03T10:43:18Z</time>
      </trkpt>
      <trkpt lat="50.65529" lon="3.39422">
        <ele>-47</ele>
        <time>2017-12-03T10:43:22Z</time>
      </trkpt>
      <trkpt lat="50.65539" lon="3.39427">
        <ele>-46</ele>
        <time>2017-12-03T10:43:26Z</time>
      </trkpt>
      <trkpt lat="50.65552" lon="3.39434">
        <ele>-46</ele>
        <time>2017-12-03T10:43:30Z</time>
      </trkpt>
      <trkpt lat="50.65565" lon="3.3944">
        <ele>-44</ele>
        <time>2017-12-03T10:43:34Z</time>
      </trkpt>
      <trkpt lat="50.65573" lon="3.39442">
        <ele>-45</ele>
        <time>2017-12-03T10:43:38Z</time>
      </trkpt>
      <trkpt lat="50.65584" lon="3.39447">
        <ele>-44</ele>
        <time>2017-12-03T10:43:42Z</time>
      </trkpt>
      <trkpt lat="50.65594" lon="3.39453">
        <ele>-43</ele>
        <time>2017-12-03T10:43:46Z</time>
      </trkpt>
      <trkpt lat="50.65602" lon="3.39466">
        <ele>-43</ele>
        <time>2017-12-03T10:43:50Z</time>
      </trkpt>
      <trkpt lat="50.65602" lon="3.39477">
        <ele>-42</ele>
        <time>2017-12-03T10:43:54Z</time>
      </trkpt>
      <trkpt lat="50.65603" lon="3.39481">
        <ele>-42</ele>
        <time>2017-12-03T10:44:02Z</time>
      </trkpt>
      <trkpt lat="50.65604" lon="3.39487">
        <ele>-41</ele>
        <time>2017-12-03T10:44:06Z</time>
      </trkpt>
      <trkpt lat="50.65604" lon="3.39493">
        <ele>-40</ele>
        <time>2017-12-03T10:44:18Z</time>
      </trkpt>
      <trkpt lat="50.65604" lon="3.39498">
        <ele>-39</ele>
        <time>2017-12-03T10:44:26Z</time>
      </trkpt>
      <trkpt lat="50.65604" lon="3.39502">
        <ele>-39</ele>
        <time>2017-12-03T10:44:30Z</time>
      </trkpt>
      <trkpt lat="50.65604" lon="3.39506">
        <ele>-39</ele>
        <time>2017-12-03T10:44:34Z</time>
      </trkpt>
      <trkpt lat="50.65603" lon="3.3951">
        <ele>-38</ele>
        <time>2017-12-03T10:44:38Z</time>
      </trkpt>
      <trkpt lat="50.65602" lon="3.39515">
        <ele>-38</ele>
        <time>2017-12-03T10:44:42Z</time>
      </trkpt>
      <trkpt lat="50.65601" lon="3.3952">
        <ele>-37</ele>
        <time>2017-12-03T10:44:46Z</time>
      </trkpt>
      <trkpt lat="50.656" lon="3.39524">
        <ele>-36</ele>
        <time>2017-12-03T10:44:50Z</time>
      </trkpt>
      <trkpt lat="50.65599" lon="3.3953">
        <ele>-36</ele>
        <time>2017-12-03T10:44:54Z</time>
      </trkpt>
      <trkpt lat="50.65598" lon="3.39536">
        <ele>-35</ele>
        <time>2017-12-03T10:44:58Z</time>
      </trkpt>
      <trkpt lat="50.65597" lon="3.39544">
        <ele>-35</ele>
        <time>2017-12-03T10:45:02Z</time>
      </trkpt>
      <trkpt lat="50.65596" lon="3.3955">
        <ele>-34</ele>
        <time>2017-12-03T10:45:06Z</time>
      </trkpt>
      <trkpt lat="50.65596" lon="3.39556">
        <ele>-34</ele>
        <time>2017-12-03T10:45:10Z</time>
      </trkpt>
      <trkpt lat="50.65594" lon="3.39565">
        <ele>-33</ele>
        <time>2017-12-03T10:45:14Z</time>
      </trkpt>
      <trkpt lat="50.65592" lon="3.39576">
        <ele>-33</ele>
        <time>2017-12-03T10:45:18Z</time>
      </trkpt>
      <trkpt lat="50.65588" lon="3.39588">
        <ele>-33</ele>
        <time>2017-12-03T10:45:22Z</time>
      </trkpt>
      <trkpt lat="50.65584" lon="3.39603">
        <ele>-33</ele>
        <time>2017-12-03T10:45:26Z</time>
      </trkpt>
      <trkpt lat="50.6558" lon="3.39614">
        <ele>-32</ele>
        <time>2017-12-03T10:45:30Z</time>
      </trkpt>
      <trkpt lat="50.65576" lon="3.39626">
        <ele>-31</ele>
        <time>2017-12-03T10:45:34Z</time>
      </trkpt>
      <trkpt lat="50.65573" lon="3.39641">
        <ele>-32</ele>
        <time>2017-12-03T10:45:38Z</time>
      </trkpt>
      <trkpt lat="50.65574" lon="3.39662">
        <ele>-33</ele>
        <time>2017-12-03T10:45:42Z</time>
      </trkpt>
      <trkpt lat="50.65574" lon="3.39681">
        <ele>-34</ele>
        <time>2017-12-03T10:45:46Z</time>
      </trkpt>
      <trkpt lat="50.65575" lon="3.39691">
        <ele>-33</ele>
        <time>2017-12-03T10:48:14Z</time>
      </trkpt>
      <trkpt lat="50.65575" lon="3.3969">
        <ele>-33</ele>
        <time>2017-12-03T10:48:22Z</time>
      </trkpt>
      <trkpt lat="50.65575" lon="3.39687">
        <ele>-33</ele>
        <time>2017-12-03T10:49:34Z</time>
      </trkpt>
      <trkpt lat="50.65578" lon="3.39685">
        <ele>-33</ele>
        <time>2017-12-03T10:49:38Z</time>
      </trkpt>
      <trkpt lat="50.65578" lon="3.3969">
        <ele>-33</ele>
        <time>2017-12-03T10:49:54Z</time>
      </trkpt>
      <trkpt lat="50.65575" lon="3.39702">
        <ele>-33</ele>
        <time>2017-12-03T10:49:58Z</time>
      </trkpt>
      <trkpt lat="50.65577" lon="3.39718">
        <ele>-32</ele>
        <time>2017-12-03T10:50:02Z</time>
      </trkpt>
      <trkpt lat="50.65579" lon="3.39733">
        <ele>-31</ele>
        <time>2017-12-03T10:50:06Z</time>
      </trkpt>
      <trkpt lat="50.65583" lon="3.39748">
        <ele>-30</ele>
        <time>2017-12-03T10:50:10Z</time>
      </trkpt>
      <trkpt lat="50.65586" lon="3.39766">
        <ele>-29</ele>
        <time>2017-12-03T10:50:14Z</time>
      </trkpt>
      <trkpt lat="50.65589" lon="3.39787">
        <ele>-29</ele>
        <time>2017-12-03T10:50:18Z</time>
      </trkpt>
      <trkpt lat="50.65592" lon="3.39807">
        <ele>-28</ele>
        <time>2017-12-03T10:50:22Z</time>
      </trkpt>
      <trkpt lat="50.65594" lon="3.39826">
        <ele>-27</ele>
        <time>2017-12-03T10:50:26Z</time>
      </trkpt>
      <trkpt lat="50.65594" lon="3.39845">
        <ele>-26</ele>
        <time>2017-12-03T10:50:30Z</time>
      </trkpt>
      <trkpt lat="50.6559" lon="3.39863">
        <ele>-25</ele>
        <time>2017-12-03T10:50:34Z</time>
      </trkpt>
      <trkpt lat="50.65584" lon="3.39882">
        <ele>-24</ele>
        <time>2017-12-03T10:50:38Z</time>
      </trkpt>
      <trkpt lat="50.65579" lon="3.399">
        <ele>-23</ele>
        <time>2017-12-03T10:50:42Z</time>
      </trkpt>
      <trkpt lat="50.65574" lon="3.39918">
        <ele>-22</ele>
        <time>2017-12-03T10:50:46Z</time>
      </trkpt>
      <trkpt lat="50.65571" lon="3.39936">
        <ele>-20</ele>
        <time>2017-12-03T10:50:50Z</time>
      </trkpt>
      <trkpt lat="50.65568" lon="3.39954">
        <ele>-19</ele>
        <time>2017-12-03T10:50:54Z</time>
      </trkpt>
      <trkpt lat="50.65565" lon="3.39966">
        <ele>-18</ele>
        <time>2017-12-03T10:50:58Z</time>
      </trkpt>
      <trkpt lat="50.65565" lon="3.39969">
        <ele>-19</ele>
        <time>2017-12-03T10:51:02Z</time>
      </trkpt>
      <trkpt lat="50.65565" lon="3.39972">
        <ele>-18</ele>
        <time>2017-12-03T10:51:06Z</time>
      </trkpt>
      <trkpt lat="50.65565" lon="3.39979">
        <ele>-18</ele>
        <time>2017-12-03T10:51:10Z</time>
      </trkpt>
      <trkpt lat="50.65564" lon="3.39995">
        <ele>-17</ele>
        <time>2017-12-03T10:51:14Z</time>
      </trkpt>
      <trkpt lat="50.65562" lon="3.40013">
        <ele>-17</ele>
        <time>2017-12-03T10:51:18Z</time>
      </trkpt>
    </trkseg>
  </trk>
</gpx>